Observation data for Endee on 03/11/2018      Previous  Date  Next       Current Mesonet Observations  Soil Data  Daily Summary Page  Observations in Plain Language
KEN1 110600Z 04018KT 10/M07 A3012 RMK A01 T00951069  RH  031%=      5-min Rain = 0
KEN1 110601Z 04014G19KT 10/M07 A3012 RMK A01 T00951070  RH  031%=      5-min Rain = 0
KEN1 110602Z 04015G20KT 09/M07 A3012 RMK A01 T00941070  RH  031%=      5-min Rain = 0
KEN1 110603Z 04021KT 09/M07 A3012 RMK A01 T00931070  RH  031%=      5-min Rain = 0
KEN1 110604Z 04018KT 09/M07 A3012 RMK A01 T00931069  RH  031%=      5-min Rain = 0
KEN1 110605Z 03019KT 09/M07 A3013 RMK A01 T00941069  RH  031%=      5-min Rain = 0
KEN1 110606Z 04019G24KT 09/M07 A3013 RMK A01 T00941069  RH  031%=      5-min Rain = 0
KEN1 110607Z 04020G26KT 09/M07 A3012 RMK A01 T00931069  RH  031%=      5-min Rain = 0
KEN1 110608Z 04019G24KT 09/M07 A3013 RMK A01 T00931068  RH  031%=      5-min Rain = 0
KEN1 110609Z 04021KT 09/M07 A3013 RMK A01 T00941068  RH  031%=      5-min Rain = 0
KEN1 110610Z 03022G28KT 09/M07 A3013 RMK A01 T00941067  RH  031%=      5-min Rain = 0
KEN1 110611Z 04023KT 09/M07 A3013 RMK A01 T00941067  RH  032%=      5-min Rain = 0
KEN1 110612Z 03019KT 09/M07 A3013 RMK A01 T00941067  RH  032%=      5-min Rain = 0
KEN1 110613Z 04019KT 09/M07 A3013 RMK A01 T00931067  RH  032%=      5-min Rain = 0
KEN1 110614Z 04018KT 09/M07 A3013 RMK A01 T00931067  RH  032%=      5-min Rain = 0
KEN1 110615Z 04018KT 09/M07 A3014 RMK A01 T00921067  RH  032%=      5-min Rain = 0
KEN1 110616Z 03021G27KT 09/M07 A3013 RMK A01 T00921067  RH  032%=      5-min Rain = 0
KEN1 110617Z 03020G25KT 09/M07 A3014 RMK A01 T00921066  RH  032%=      5-min Rain = 0
KEN1 110618Z 03019KT 09/M07 A3014 RMK A01 T00921066  RH  032%=      5-min Rain = 0
KEN1 110619Z 03020G25KT 09/M07 A3014 RMK A01 T00921066  RH  032%=      5-min Rain = 0
KEN1 110620Z 04017KT 09/M07 A3014 RMK A01 T00921066  RH  032%=      5-min Rain = 0
KEN1 110621Z 04016G21KT 09/M07 A3014 RMK A01 T00911066  RH  032%=      5-min Rain = 0
KEN1 110622Z 04016KT 09/M07 A3014 RMK A01 T00901066  RH  032%=      5-min Rain = 0
KEN1 110623Z 03020KT 09/M07 A3014 RMK A01 T00901065  RH  033%=      5-min Rain = 0
KEN1 110624Z 03019KT 09/M07 A3014 RMK A01 T00911065  RH  033%=      5-min Rain = 0
KEN1 110625Z 03020G26KT 09/M07 A3014 RMK A01 T00901065  RH  033%=      5-min Rain = 0
KEN1 110626Z 04020G25KT 09/M07 A3014 RMK A01 T00901065  RH  033%=      5-min Rain = 0
KEN1 110627Z 03023KT 09/M06 A3014 RMK A01 T00901064  RH  033%=      5-min Rain = 0
KEN1 110628Z 03021G28KT 09/M06 A3014 RMK A01 T00901063  RH  033%=      5-min Rain = 0
KEN1 110629Z 03019G25KT 09/M06 A3014 RMK A01 T00901063  RH  033%=      5-min Rain = 0
KEN1 110630Z 04018KT 09/M06 A3014 RMK A01 T00901063  RH  033%=      5-min Rain = 0
KEN1 110631Z 03016KT 09/M06 A3014 RMK A01 T00901063  RH  033%=      5-min Rain = 0
KEN1 110632Z 04014KT 09/M06 A3014 RMK A01 T00891063  RH  033%=      5-min Rain = 0
KEN1 110633Z 03014KT 09/M06 A3014 RMK A01 T00891063  RH  034%=      5-min Rain = 0
KEN1 110634Z 03016G21KT 09/M06 A3014 RMK A01 T00881063  RH  034%=      5-min Rain = 0
KEN1 110635Z 03017KT 09/M06 A3014 RMK A01 T00881063  RH  034%=      5-min Rain = 0
KEN1 110636Z 04019KT 09/M06 A3014 RMK A01 T00881063  RH  034%=      5-min Rain = 0
KEN1 110637Z 03018KT 09/M06 A3014 RMK A01 T00881063  RH  034%=      5-min Rain = 0
KEN1 110638Z 03014KT 09/M06 A3015 RMK A01 T00881063  RH  034%=      5-min Rain = 0
KEN1 110639Z 03015KT 09/M06 A3015 RMK A01 T00881063  RH  034%=      5-min Rain = 0
KEN1 110640Z 03016KT 09/M06 A3015 RMK A01 T00881062  RH  034%=      5-min Rain = 0
KEN1 110641Z 03017KT 09/M06 A3015 RMK A01 T00871063  RH  034%=      5-min Rain = 0
KEN1 110642Z 03016KT 09/M06 A3015 RMK A01 T00871063  RH  034%=      5-min Rain = 0
KEN1 110643Z 03018KT 09/M06 A3015 RMK A01 T00871063  RH  034%=      5-min Rain = 0
KEN1 110644Z 03013KT 09/M06 A3015 RMK A01 T00871062  RH  034%=      5-min Rain = 0
KEN1 110645Z 03013KT 09/M06 A3015 RMK A01 T00871062  RH  034%=      5-min Rain = 0
KEN1 110646Z 04012KT 09/M06 A3015 RMK A01 T00861063  RH  034%=      5-min Rain = 0
KEN1 110647Z 03014KT 09/M06 A3015 RMK A01 T00861063  RH  034%=      5-min Rain = 0
KEN1 110648Z 03013KT 09/M06 A3015 RMK A01 T00861063  RH  034%=      5-min Rain = 0
KEN1 110649Z 03014KT 09/M06 A3015 RMK A01 T00861062  RH  034%=      5-min Rain = 0
KEN1 110650Z 03012G17KT 09/M06 A3015 RMK A01 T00861062  RH  035%=      5-min Rain = 0
KEN1 110651Z 03014KT 09/M06 A3015 RMK A01 T00861062  RH  035%=      5-min Rain = 0
KEN1 110652Z 03015KT 09/M06 A3015 RMK A01 T00851062  RH  035%=      5-min Rain = 0
KEN1 110653Z 03012KT 09/M06 A3015 RMK A01 T00851063  RH  035%=      5-min Rain = 0
KEN1 110654Z 03012KT 09/M06 A3015 RMK A01 T00851062  RH  035%=      5-min Rain = 0
KEN1 110655Z 03012KT 09/M06 A3015 RMK A01 T00851062  RH  035%=      5-min Rain = 0
KEN1 110656Z 03012G17KT 08/M06 A3015 RMK A01 T00841063  RH  035%=      5-min Rain = 0
KEN1 110657Z 03014KT 08/M06 A3015 RMK A01 T00841062  RH  035%=      5-min Rain = 0
KEN1 110658Z 03011KT 08/M06 A3015 RMK A01 T00841062  RH  035%=      5-min Rain = 0
KEN1 110659Z 03011KT 08/M06 A3015 RMK A01 T00841063  RH  035%=      5-min Rain = 0
KEN1 110700Z 03014KT 08/M06 A3015 RMK A01 T00831063  RH  035%=      5-min Rain = 0
KEN1 110701Z 03014KT 08/M06 A3016 RMK A01 T00841062  RH  035%=      5-min Rain = 0
KEN1 110702Z 03013KT 08/M06 A3016 RMK A01 T00831063  RH  035%=      5-min Rain = 0
KEN1 110703Z 03012G18KT 08/M06 A3016 RMK A01 T00831063  RH  035%=      5-min Rain = 0
KEN1 110704Z 03014KT 08/M06 A3016 RMK A01 T00831062  RH  035%=      5-min Rain = 0
KEN1 110705Z 03013G18KT 08/M06 A3016 RMK A01 T00831063  RH  035%=      5-min Rain = 0
KEN1 110706Z 02012KT 08/M06 A3016 RMK A01 T00831063  RH  035%=      5-min Rain = 0
KEN1 110707Z 03013KT 08/M06 A3016 RMK A01 T00831063  RH  035%=      5-min Rain = 0
KEN1 110708Z 03013KT 08/M06 A3016 RMK A01 T00831063  RH  035%=      5-min Rain = 0
KEN1 110709Z 02013KT 08/M06 A3015 RMK A01 T00831063  RH  035%=      5-min Rain = 0
KEN1 110710Z 02014KT 08/M06 A3015 RMK A01 T00831063  RH  035%=      5-min Rain = 0
KEN1 110711Z 02012KT 08/M06 A3015 RMK A01 T00831063  RH  035%=      5-min Rain = 0
KEN1 110712Z 02017KT 08/M06 A3015 RMK A01 T00831063  RH  035%=      5-min Rain = 0
KEN1 110713Z 03017KT 08/M06 A3015 RMK A01 T00831063  RH  035%=      5-min Rain = 0
KEN1 110714Z 02016KT 08/M06 A3015 RMK A01 T00841063  RH  035%=      5-min Rain = 0
KEN1 110715Z 03014KT 08/M06 A3016 RMK A01 T00831063  RH  035%=      5-min Rain = 0
KEN1 110716Z 03012KT 08/M06 A3016 RMK A01 T00831063  RH  035%=      5-min Rain = 0
KEN1 110717Z 03013KT 08/M06 A3016 RMK A01 T00831063  RH  035%=      5-min Rain = 0
KEN1 110718Z 03013KT 08/M06 A3015 RMK A01 T00821064  RH  035%=      5-min Rain = 0
KEN1 110719Z 03013KT 08/M06 A3015 RMK A01 T00821063  RH  035%=      5-min Rain = 0
KEN1 110720Z 03013KT 08/M06 A3015 RMK A01 T00821063  RH  035%=      5-min Rain = 0
KEN1 110721Z 03012KT 08/M06 A3015 RMK A01 T00821063  RH  035%=      5-min Rain = 0
KEN1 110722Z 03012KT 08/M06 A3015 RMK A01 T00821063  RH  035%=      5-min Rain = 0
KEN1 110723Z 03010KT 08/M06 A3015 RMK A01 T00811064  RH  035%=      5-min Rain = 0
KEN1 110724Z 03011KT 08/M06 A3015 RMK A01 T00811064  RH  035%=      5-min Rain = 0
KEN1 110725Z 02013KT 08/M06 A3015 RMK A01 T00801064  RH  035%=      5-min Rain = 0
KEN1 110726Z 02011KT 08/M06 A3015 RMK A01 T00801064  RH  035%=      5-min Rain = 0
KEN1 110727Z 03013KT 08/M06 A3015 RMK A01 T00801063  RH  035%=      5-min Rain = 0
KEN1 110728Z 03011KT 08/M06 A3015 RMK A01 T00801064  RH  035%=      5-min Rain = 0
KEN1 110729Z 03013KT 08/M06 A3016 RMK A01 T00811063  RH  035%=      5-min Rain = 0
KEN1 110730Z 03012KT 08/M06 A3016 RMK A01 T00811063  RH  035%=      5-min Rain = 0
KEN1 110731Z 03012KT 08/M06 A3016 RMK A01 T00811063  RH  035%=      5-min Rain = 0
KEN1 110732Z 03010KT 08/M06 A3016 RMK A01 T00801064  RH  035%=      5-min Rain = 0
KEN1 110733Z 03011KT 08/M06 A3016 RMK A01 T00801064  RH  035%=      5-min Rain = 0
KEN1 110734Z 03012KT 08/M06 A3016 RMK A01 T00801064  RH  035%=      5-min Rain = 0
KEN1 110735Z 03012KT 08/M06 A3016 RMK A01 T00801064  RH  035%=      5-min Rain = 0
KEN1 110736Z 03011KT 08/M06 A3016 RMK A01 T00801064  RH  035%=      5-min Rain = 0
KEN1 110737Z 03011KT 08/M06 A3016 RMK A01 T00801064  RH  035%=      5-min Rain = 0
KEN1 110738Z 03009KT 08/M06 A3016 RMK A01 T00801064  RH  035%=      5-min Rain = 0
KEN1 110739Z 03011KT 08/M06 A3016 RMK A01 T00791064  RH  035%=      5-min Rain = 0
KEN1 110740Z 02010KT 08/M06 A3016 RMK A01 T00791064  RH  036%=      5-min Rain = 0
KEN1 110741Z 03010KT 08/M06 A3016 RMK A01 T00791064  RH  036%=      5-min Rain = 0
KEN1 110742Z 02009KT 08/M07 A3016 RMK A01 T00781065  RH  036%=      5-min Rain = 0
KEN1 110743Z 02011KT 08/M06 A3016 RMK A01 T00781064  RH  036%=      5-min Rain = 0
KEN1 110744Z 02010KT 08/M06 A3016 RMK A01 T00781064  RH  036%=      5-min Rain = 0
KEN1 110745Z 03010KT 08/M06 A3017 RMK A01 T00781064  RH  036%=      5-min Rain = 0
KEN1 110746Z 02009KT 08/M06 A3017 RMK A01 T00781064  RH  036%=      5-min Rain = 0
KEN1 110747Z 03011KT 08/M07 A3017 RMK A01 T00781065  RH  036%=      5-min Rain = 0
KEN1 110748Z 03010KT 08/M07 A3017 RMK A01 T00781065  RH  036%=      5-min Rain = 0
KEN1 110749Z 02011KT 08/M07 A3017 RMK A01 T00771065  RH  036%=      5-min Rain = 0
KEN1 110750Z 02010KT 08/M07 A3017 RMK A01 T00771065  RH  036%=      5-min Rain = 0
KEN1 110751Z 02009KT 08/M06 A3017 RMK A01 T00781064  RH  036%=      5-min Rain = 0
KEN1 110752Z 02011KT 08/M07 A3017 RMK A01 T00781065  RH  036%=      5-min Rain = 0
KEN1 110753Z 03010KT 08/M07 A3017 RMK A01 T00771065  RH  036%=      5-min Rain = 0
KEN1 110754Z 03010KT 08/M07 A3017 RMK A01 T00771065  RH  036%=      5-min Rain = 0
KEN1 110755Z 02008KT 08/M07 A3017 RMK A01 T00771065  RH  036%=      5-min Rain = 0
KEN1 110756Z 02009KT 08/M07 A3017 RMK A01 T00761065  RH  036%=      5-min Rain = 0
KEN1 110757Z 02009KT 08/M07 A3017 RMK A01 T00761065  RH  036%=      5-min Rain = 0
KEN1 110758Z 02009KT 08/M07 A3018 RMK A01 T00761065  RH  036%=      5-min Rain = 0
KEN1 110759Z 02010KT 08/M07 A3017 RMK A01 T00761065  RH  036%=      5-min Rain = 0
KEN1 110800Z 02010KT 08/M07 A3018 RMK A01 T00761065  RH  036%=      5-min Rain = 0
KEN1 110801Z 02009KT 08/M07 A3018 RMK A01 T00761065  RH  036%=      5-min Rain = 0
KEN1 110802Z 02010KT 08/M07 A3018 RMK A01 T00761065  RH  036%=      5-min Rain = 0
KEN1 110803Z 02010KT 08/M07 A3017 RMK A01 T00761065  RH  036%=      5-min Rain = 0
KEN1 110804Z 02010KT 08/M07 A3017 RMK A01 T00761065  RH  036%=      5-min Rain = 0
KEN1 110805Z 02010KT 08/M07 A3017 RMK A01 T00761065  RH  036%=      5-min Rain = 0
KEN1 110806Z 02010KT 08/M07 A3017 RMK A01 T00761065  RH  036%=      5-min Rain = 0
KEN1 110807Z 02010KT 08/M07 A3018 RMK A01 T00761065  RH  036%=      5-min Rain = 0
KEN1 110808Z 02010KT 08/M07 A3018 RMK A01 T00761065  RH  036%=      5-min Rain = 0
KEN1 110809Z 02009KT 08/M07 A3018 RMK A01 T00761065  RH  036%=      5-min Rain = 0
KEN1 110810Z 02009KT 08/M07 A3018 RMK A01 T00751065  RH  036%=      5-min Rain = 0
KEN1 110811Z 02008KT 08/M07 A3018 RMK A01 T00751066  RH  036%=      5-min Rain = 0
KEN1 110812Z 02009KT 07/M07 A3018 RMK A01 T00741066  RH  036%=      5-min Rain = 0
KEN1 110813Z 02010KT 07/M07 A3018 RMK A01 T00741066  RH  036%=      5-min Rain = 0
KEN1 110814Z 02010KT 07/M07 A3018 RMK A01 T00741065  RH  036%=      5-min Rain = 0
KEN1 110815Z 02010KT 07/M07 A3018 RMK A01 T00741066  RH  036%=      5-min Rain = 0
KEN1 110816Z 02009KT 07/M07 A3018 RMK A01 T00741066  RH  036%=      5-min Rain = 0
KEN1 110817Z 02008KT 07/M07 A3018 RMK A01 T00741066  RH  036%=      5-min Rain = 0
KEN1 110818Z 02008KT 07/M07 A3018 RMK A01 T00731066  RH  036%=      5-min Rain = 0
KEN1 110819Z 02009KT 07/M07 A3018 RMK A01 T00731066  RH  037%=      5-min Rain = 0
KEN1 110820Z 02008KT 07/M07 A3018 RMK A01 T00731066  RH  037%=      5-min Rain = 0
KEN1 110821Z 02009KT 07/M07 A3018 RMK A01 T00721066  RH  037%=      5-min Rain = 0
KEN1 110822Z 02008KT 07/M07 A3018 RMK A01 T00721066  RH  037%=      5-min Rain = 0
KEN1 110823Z 02008KT 07/M07 A3018 RMK A01 T00721066  RH  037%=      5-min Rain = 0
KEN1 110824Z 02008KT 07/M07 A3018 RMK A01 T00731066  RH  037%=      5-min Rain = 0
KEN1 110825Z 02008KT 07/M07 A3018 RMK A01 T00721066  RH  037%=      5-min Rain = 0
KEN1 110826Z 02008KT 07/M07 A3018 RMK A01 T00721067  RH  037%=      5-min Rain = 0
KEN1 110827Z 02009KT 07/M07 A3018 RMK A01 T00721066  RH  037%=      5-min Rain = 0
KEN1 110828Z 02009KT 07/M07 A3018 RMK A01 T00721066  RH  037%=      5-min Rain = 0
KEN1 110829Z 02007KT 07/M07 A3018 RMK A01 T00721066  RH  037%=      5-min Rain = 0
KEN1 110830Z 02008KT 07/M07 A3018 RMK A01 T00711067  RH  037%=      5-min Rain = 0
KEN1 110831Z 02008KT 07/M07 A3018 RMK A01 T00711067  RH  037%=      5-min Rain = 0
KEN1 110832Z 02009KT 07/M07 A3018 RMK A01 T00701067  RH  037%=      5-min Rain = 0
KEN1 110833Z 02008KT 07/M07 A3018 RMK A01 T00701067  RH  037%=      5-min Rain = 0
KEN1 110834Z 02008KT 07/M07 A3018 RMK A01 T00701067  RH  037%=      5-min Rain = 0
KEN1 110835Z 02008KT 07/M07 A3018 RMK A01 T00701067  RH  037%=      5-min Rain = 0
KEN1 110836Z 02007KT 07/M07 A3018 RMK A01 T00701067  RH  037%=      5-min Rain = 0
KEN1 110837Z 02008KT 07/M07 A3018 RMK A01 T00691067  RH  037%=      5-min Rain = 0
KEN1 110838Z 01007KT 07/M07 A3018 RMK A01 T00691067  RH  037%=      5-min Rain = 0
KEN1 110839Z 02008KT 07/M07 A3018 RMK A01 T00681068  RH  037%=      5-min Rain = 0
KEN1 110840Z 02007KT 07/M07 A3018 RMK A01 T00681068  RH  037%=      5-min Rain = 0
KEN1 110841Z 01008KT 07/M07 A3018 RMK A01 T00681068  RH  037%=      5-min Rain = 0
KEN1 110842Z 01007KT 07/M07 A3018 RMK A01 T00681068  RH  037%=      5-min Rain = 0
KEN1 110843Z 02007KT 07/M07 A3018 RMK A01 T00681068  RH  037%=      5-min Rain = 0
KEN1 110844Z 02007KT 07/M07 A3018 RMK A01 T00671069  RH  037%=      5-min Rain = 0
KEN1 110845Z 02007KT 07/M07 A3018 RMK A01 T00671069  RH  037%=      5-min Rain = 0
KEN1 110846Z 01007KT 07/M07 A3018 RMK A01 T00661069  RH  037%=      5-min Rain = 0
KEN1 110847Z 01007KT 07/M07 A3018 RMK A01 T00661069  RH  037%=      5-min Rain = 0
KEN1 110848Z 01007KT 07/M07 A3018 RMK A01 T00661069  RH  038%=      5-min Rain = 0
KEN1 110849Z 01007KT 07/M07 A3018 RMK A01 T00651069  RH  038%=      5-min Rain = 0
KEN1 110850Z 01008KT 07/M07 A3018 RMK A01 T00651069  RH  038%=      5-min Rain = 0
KEN1 110851Z 01007KT 07/M07 A3018 RMK A01 T00651069  RH  038%=      5-min Rain = 0
KEN1 110852Z 01008KT 07/M07 A3018 RMK A01 T00651069  RH  038%=      5-min Rain = 0
KEN1 110853Z 02009KT 07/M07 A3018 RMK A01 T00651070  RH  037%=      5-min Rain = 0
KEN1 110854Z 02008KT 07/M07 A3019 RMK A01 T00661069  RH  037%=      5-min Rain = 0
KEN1 110855Z 02011KT 07/M07 A3018 RMK A01 T00661070  RH  037%=      5-min Rain = 0
KEN1 110856Z 01012KT 07/M07 A3018 RMK A01 T00671071  RH  037%=      5-min Rain = 0
KEN1 110857Z 01013KT 07/M07 A3018 RMK A01 T00681070  RH  037%=      5-min Rain = 0
KEN1 110858Z 02012KT 07/M07 A3018 RMK A01 T00691071  RH  036%=      5-min Rain = 0
KEN1 110859Z 02011KT 07/M07 A3018 RMK A01 T00691071  RH  036%=      5-min Rain = 0
KEN1 110900Z 02012KT 07/M07 A3018 RMK A01 T00691071  RH  036%=      5-min Rain = 0
KEN1 110901Z 02012KT 07/M07 A3018 RMK A01 T00691071  RH  036%=      5-min Rain = 0
KEN1 110902Z 03012KT 07/M07 A3018 RMK A01 T00681071  RH  036%=      5-min Rain = 0
KEN1 110903Z 02013KT 07/M07 A3018 RMK A01 T00681071  RH  036%=      5-min Rain = 0
KEN1 110904Z 03016KT 07/M07 A3018 RMK A01 T00681071  RH  036%=      5-min Rain = 0
KEN1 110905Z 03015KT 07/M07 A3018 RMK A01 T00691071  RH  036%=      5-min Rain = 0
KEN1 110906Z 03015KT 07/M07 A3018 RMK A01 T00691072  RH  036%=      5-min Rain = 0
KEN1 110907Z 02014KT 07/M07 A3018 RMK A01 T00691072  RH  036%=      5-min Rain = 0
KEN1 110908Z 03016KT 07/M07 A3018 RMK A01 T00691072  RH  036%=      5-min Rain = 0
KEN1 110909Z 03014KT 07/M07 A3018 RMK A01 T00691072  RH  036%=      5-min Rain = 0
KEN1 110910Z 03014KT 07/M07 A3018 RMK A01 T00691072  RH  036%=      5-min Rain = 0
KEN1 110911Z 02013KT 07/M07 A3018 RMK A01 T00691072  RH  036%=      5-min Rain = 0
KEN1 110912Z 03011KT 07/M07 A3018 RMK A01 T00691072  RH  036%=      5-min Rain = 0
KEN1 110913Z 03013KT 07/M07 A3018 RMK A01 T00681072  RH  036%=      5-min Rain = 0
KEN1 110914Z 02011KT 07/M07 A3018 RMK A01 T00671072  RH  036%=      5-min Rain = 0
KEN1 110915Z 01011KT 07/M07 A3018 RMK A01 T00671072  RH  036%=      5-min Rain = 0
KEN1 110916Z 02009KT 07/M07 A3019 RMK A01 T00671072  RH  037%=      5-min Rain = 0
KEN1 110917Z 02009KT 07/M07 A3019 RMK A01 T00661072  RH  037%=      5-min Rain = 0
KEN1 110918Z 02012KT 07/M07 A3019 RMK A01 T00651072  RH  037%=      5-min Rain = 0
KEN1 110919Z 02015KT 07/M07 A3019 RMK A01 T00651072  RH  037%=      5-min Rain = 0
KEN1 110920Z 02013KT 07/M07 A3019 RMK A01 T00651073  RH  036%=      5-min Rain = 0
KEN1 110921Z 02013KT 07/M07 A3019 RMK A01 T00661073  RH  036%=      5-min Rain = 0
KEN1 110922Z 02015KT 07/M07 A3019 RMK A01 T00661073  RH  036%=      5-min Rain = 0
KEN1 110923Z 02017KT 07/M07 A3019 RMK A01 T00661073  RH  036%=      5-min Rain = 0
KEN1 110924Z 02013KT 07/M07 A3019 RMK A01 T00661073  RH  036%=      5-min Rain = 0
KEN1 110925Z 02012KT 07/M07 A3019 RMK A01 T00661073  RH  036%=      5-min Rain = 0
KEN1 110926Z 01014G19KT 07/M07 A3019 RMK A01 T00651073  RH  037%=      5-min Rain = 0
KEN1 110927Z 02014KT 07/M07 A3019 RMK A01 T00651073  RH  037%=      5-min Rain = 0
KEN1 110928Z 02013KT 06/M07 A3019 RMK A01 T00641073  RH  037%=      5-min Rain = 0
KEN1 110929Z 02016G24KT 06/M07 A3019 RMK A01 T00641074  RH  037%=      5-min Rain = 0
KEN1 110930Z 02016KT 06/M08 A3019 RMK A01 T00641075  RH  036%=      5-min Rain = 0
KEN1 110931Z 02017G23KT 06/M08 A3019 RMK A01 T00631076  RH  036%=      5-min Rain = 0
KEN1 110932Z 02019KT 06/M08 A3019 RMK A01 T00631077  RH  036%=      5-min Rain = 0
KEN1 110933Z 03020KT 06/M08 A3019 RMK A01 T00621079  RH  036%=      5-min Rain = 0
KEN1 110934Z 02019KT 06/M08 A3019 RMK A01 T00621079  RH  036%=      5-min Rain = 0
KEN1 110935Z 02018KT 06/M08 A3019 RMK A01 T00611080  RH  036%=      5-min Rain = 0
KEN1 110936Z 02020G25KT 06/M08 A3019 RMK A01 T00611080  RH  036%=      5-min Rain = 0
KEN1 110937Z 02021KT 06/M08 A3019 RMK A01 T00611080  RH  036%=      5-min Rain = 0
KEN1 110938Z 02018KT 06/M08 A3019 RMK A01 T00601080  RH  036%=      5-min Rain = 0
KEN1 110939Z 02020KT 06/M08 A3019 RMK A01 T00591081  RH  036%=      5-min Rain = 0
KEN1 110940Z 02016KT 06/M08 A3019 RMK A01 T00591080  RH  036%=      5-min Rain = 0
KEN1 110941Z 02014G19KT 06/M08 A3019 RMK A01 T00581081  RH  036%=      5-min Rain = 0
KEN1 110942Z 03018KT 06/M08 A3019 RMK A01 T00571081  RH  036%=      5-min Rain = 0
KEN1 110943Z 02016KT 06/M08 A3019 RMK A01 T00571081  RH  036%=      5-min Rain = 0
KEN1 110944Z 02019KT 06/M08 A3019 RMK A01 T00561081  RH  037%=      5-min Rain = 0
KEN1 110945Z 02020KT 06/M08 A3019 RMK A01 T00571081  RH  037%=      5-min Rain = 0
KEN1 110946Z 02018KT 06/M08 A3019 RMK A01 T00571081  RH  037%=      5-min Rain = 0
KEN1 110947Z 02016KT 06/M08 A302 RMK A01 T00561081  RH  037%=      5-min Rain = 0
KEN1 110948Z 02019KT 06/M08 A302 RMK A01 T00561081  RH  037%=      5-min Rain = 0
KEN1 110949Z 02017KT 06/M08 A302 RMK A01 T00561081  RH  037%=      5-min Rain = 0
KEN1 110950Z 02017G22KT 06/M08 A302 RMK A01 T00551081  RH  037%=      5-min Rain = 0
KEN1 110951Z 02016G21KT 06/M08 A302 RMK A01 T00551081  RH  037%=      5-min Rain = 0
KEN1 110952Z 02018KT 06/M08 A302 RMK A01 T00551081  RH  037%=      5-min Rain = 0
KEN1 110953Z 02019KT 06/M08 A302 RMK A01 T00551081  RH  037%=      5-min Rain = 0
KEN1 110954Z 02017KT 06/M08 A302 RMK A01 T00551081  RH  037%=      5-min Rain = 0
KEN1 110955Z 02014KT 06/M08 A302 RMK A01 T00551081  RH  037%=      5-min Rain = 0
KEN1 110956Z 02013KT 05/M08 A302 RMK A01 T00541081  RH  037%=      5-min Rain = 0
KEN1 110957Z 02013KT 05/M08 A302 RMK A01 T00531081  RH  037%=      5-min Rain = 0
KEN1 110958Z 02017KT 05/M08 A302 RMK A01 T00531081  RH  037%=      5-min Rain = 0
KEN1 110959Z 02019KT 05/M08 A302 RMK A01 T00531082  RH  037%=      5-min Rain = 0
KEN1 111000Z 02018KT 05/M08 A302 RMK A01 T00521084  RH  037%=      5-min Rain = 0
KEN1 111001Z 02019KT 05/M08 A302 RMK A01 T00521084  RH  037%=      5-min Rain = 0
KEN1 111002Z 02020KT 05/M09 A302 RMK A01 T00521086  RH  036%=      5-min Rain = 0
KEN1 111003Z 03020KT 05/M09 A302 RMK A01 T00521087  RH  036%=      5-min Rain = 0
KEN1 111004Z 02015KT 05/M09 A302 RMK A01 T00521087  RH  036%=      5-min Rain = 0
KEN1 111005Z 03018KT 05/M09 A302 RMK A01 T00521087  RH  036%=      5-min Rain = 0
KEN1 111006Z 03017KT 05/M09 A302 RMK A01 T00511088  RH  036%=      5-min Rain = 0
KEN1 111007Z 03021G26KT 05/M09 A302 RMK A01 T00511089  RH  036%=      5-min Rain = 0
KEN1 111008Z 03019KT 05/M09 A302 RMK A01 T00511090  RH  035%=      5-min Rain = 0
KEN1 111009Z 03018G23KT 05/M09 A302 RMK A01 T00511090  RH  035%=      5-min Rain = 0
KEN1 111010Z 03019KT 05/M09 A302 RMK A01 T00511090  RH  035%=      5-min Rain = 0
KEN1 111011Z 03019KT 05/M09 A302 RMK A01 T00501090  RH  035%=      5-min Rain = 0
KEN1 111012Z 03018KT 05/M09 A302 RMK A01 T00511090  RH  036%=      5-min Rain = 0
KEN1 111013Z 03015KT 05/M09 A3021 RMK A01 T00501090  RH  036%=      5-min Rain = 0
KEN1 111014Z 02018KT 05/M09 A3021 RMK A01 T00501090  RH  036%=      5-min Rain = 0
KEN1 111015Z 03017KT 05/M09 A3021 RMK A01 T00501089  RH  036%=      5-min Rain = 0
KEN1 111016Z 03014KT 05/M09 A3021 RMK A01 T00491089  RH  036%=      5-min Rain = 0
KEN1 111017Z 03014KT 05/M09 A3021 RMK A01 T00491089  RH  036%=      5-min Rain = 0
KEN1 111018Z 03018KT 05/M09 A3021 RMK A01 T00491089  RH  036%=      5-min Rain = 0
KEN1 111019Z 02016KT 05/M09 A3021 RMK A01 T00491089  RH  036%=      5-min Rain = 0
KEN1 111020Z 03013KT 05/M09 A3021 RMK A01 T00491089  RH  036%=      5-min Rain = 0
KEN1 111021Z 02016KT 05/M09 A3021 RMK A01 T00481089  RH  036%=      5-min Rain = 0
KEN1 111022Z 03013KT 05/M09 A3021 RMK A01 T00481089  RH  036%=      5-min Rain = 0
KEN1 111023Z 02014KT 05/M09 A3021 RMK A01 T00481089  RH  037%=      5-min Rain = 0
KEN1 111024Z 02014KT 05/M09 A3021 RMK A01 T00471088  RH  037%=      5-min Rain = 0
KEN1 111025Z 02014KT 05/M09 A3021 RMK A01 T00471088  RH  037%=      5-min Rain = 0
KEN1 111026Z 02012KT 05/M09 A3021 RMK A01 T00471088  RH  037%=      5-min Rain = 0
KEN1 111027Z 02013G18KT 05/M09 A3021 RMK A01 T00471088  RH  037%=      5-min Rain = 0
KEN1 111028Z 01015KT 05/M09 A3021 RMK A01 T00471091  RH  036%=      5-min Rain = 0
KEN1 111029Z 01015KT 05/M09 A3021 RMK A01 T00471094  RH  035%=      5-min Rain = 0
KEN1 111030Z 02014KT 05/M10 A3021 RMK A01 T00461096  RH  035%=      5-min Rain = 0
KEN1 111031Z 02016KT 05/M10 A3021 RMK A01 T00461097  RH  035%=      5-min Rain = 0
KEN1 111032Z 02015KT 05/M10 A3021 RMK A01 T00451098  RH  035%=      5-min Rain = 0
KEN1 111033Z 02017KT 05/M10 A3021 RMK A01 T00451098  RH  034%=      5-min Rain = 0
KEN1 111034Z 02014KT 05/M10 A3021 RMK A01 T00451098  RH  034%=      5-min Rain = 0
KEN1 111035Z 02015KT 05/M10 A3021 RMK A01 T00451099  RH  034%=      5-min Rain = 0
KEN1 111036Z 02014KT 05/M10 A3022 RMK A01 T00451099  RH  034%=      5-min Rain = 0
KEN1 111037Z 02016KT 05/M10 A3022 RMK A01 T00451099  RH  034%=      5-min Rain = 0
KEN1 111038Z 02015KT 05/M10 A3022 RMK A01 T00451100  RH  034%=      5-min Rain = 0
KEN1 111039Z 02015G20KT 04/M10 A3021 RMK A01 T00441101  RH  034%=      5-min Rain = 0
KEN1 111040Z 03019KT 04/M10 A3021 RMK A01 T00441102  RH  034%=      5-min Rain = 0
KEN1 111041Z 02017KT 04/M10 A3021 RMK A01 T00441102  RH  034%=      5-min Rain = 0
KEN1 111042Z 02018KT 04/M10 A3021 RMK A01 T00441103  RH  034%=      5-min Rain = 0
KEN1 111043Z 02016G21KT 04/M10 A3021 RMK A01 T00441103  RH  034%=      5-min Rain = 0
KEN1 111044Z 03018KT 04/M10 A3022 RMK A01 T00431103  RH  034%=      5-min Rain = 0
KEN1 111045Z 03016G21KT 04/M10 A3022 RMK A01 T00431103  RH  034%=      5-min Rain = 0
KEN1 111046Z 03017KT 04/M10 A3022 RMK A01 T00431104  RH  034%=      5-min Rain = 0
KEN1 111047Z 03016G22KT 04/M10 A3022 RMK A01 T00431104  RH  033%=      5-min Rain = 0
KEN1 111048Z 03016G21KT 04/M11 A3022 RMK A01 T00431105  RH  033%=      5-min Rain = 0
KEN1 111049Z 02017KT 04/M11 A3022 RMK A01 T00431105  RH  033%=      5-min Rain = 0
KEN1 111050Z 03017G22KT 04/M11 A3022 RMK A01 T00421106  RH  033%=      5-min Rain = 0
KEN1 111051Z 02016KT 04/M11 A3022 RMK A01 T00421106  RH  033%=      5-min Rain = 0
KEN1 111052Z 03016KT 04/M11 A3022 RMK A01 T00421107  RH  033%=      5-min Rain = 0
KEN1 111053Z 03017KT 04/M11 A3022 RMK A01 T00421107  RH  033%=      5-min Rain = 0
KEN1 111054Z 03017KT 04/M11 A3022 RMK A01 T00421107  RH  033%=      5-min Rain = 0
KEN1 111055Z 02021KT 04/M11 A3022 RMK A01 T00421108  RH  033%=      5-min Rain = 0
KEN1 111056Z 03018KT 04/M11 A3022 RMK A01 T00431108  RH  033%=      5-min Rain = 0
KEN1 111057Z 02018KT 04/M11 A3023 RMK A01 T00421108  RH  033%=      5-min Rain = 0
KEN1 111058Z 02014KT 04/M11 A3023 RMK A01 T00421108  RH  032%=      5-min Rain = 0
KEN1 111059Z 02017KT 04/M11 A3023 RMK A01 T00421108  RH  033%=      5-min Rain = 0
KEN1 111100Z 02014KT 04/M11 A3023 RMK A01 T00421108  RH  033%=      5-min Rain = 0
KEN1 111101Z 02015KT 04/M11 A3023 RMK A01 T00421108  RH  033%=      5-min Rain = 0
KEN1 111102Z 03016KT 04/M11 A3023 RMK A01 T00421108  RH  033%=      5-min Rain = 0
KEN1 111103Z 02015KT 04/M11 A3023 RMK A01 T00421108  RH  033%=      5-min Rain = 0
KEN1 111104Z 02014KT 04/M11 A3023 RMK A01 T00411108  RH  033%=      5-min Rain = 0
KEN1 111105Z 02015KT 04/M11 A3023 RMK A01 T00411107  RH  033%=      5-min Rain = 0
KEN1 111106Z 02013KT 04/M11 A3023 RMK A01 T00421107  RH  033%=      5-min Rain = 0
KEN1 111107Z 02013KT 04/M11 A3023 RMK A01 T00411107  RH  033%=      5-min Rain = 0
KEN1 111108Z 02013KT 04/M11 A3023 RMK A01 T00411107  RH  033%=      5-min Rain = 0
KEN1 111109Z 02012KT 04/M11 A3023 RMK A01 T00411106  RH  033%=      5-min Rain = 0
KEN1 111110Z 02013KT 04/M11 A3023 RMK A01 T00401107  RH  033%=      5-min Rain = 0
KEN1 111111Z 02012KT 04/M11 A3023 RMK A01 T00401107  RH  033%=      5-min Rain = 0
KEN1 111112Z 02009KT 04/M11 A3023 RMK A01 T00411106  RH  033%=      5-min Rain = 0
KEN1 111113Z 02011KT 04/M11 A3023 RMK A01 T00401106  RH  034%=      5-min Rain = 0
KEN1 111114Z 01010KT 04/M11 A3023 RMK A01 T00401107  RH  033%=      5-min Rain = 0
KEN1 111115Z 01010KT 04/M11 A3024 RMK A01 T00401107  RH  034%=      5-min Rain = 0
KEN1 111116Z 02011KT 04/M11 A3024 RMK A01 T00391106  RH  034%=      5-min Rain = 0
KEN1 111117Z 02012KT 04/M11 A3024 RMK A01 T00391106  RH  034%=      5-min Rain = 0
KEN1 111118Z 03013KT 04/M11 A3024 RMK A01 T00391106  RH  034%=      5-min Rain = 0
KEN1 111119Z 02015KT 04/M11 A3024 RMK A01 T00391106  RH  034%=      5-min Rain = 0
KEN1 111120Z 02016KT 04/M11 A3024 RMK A01 T00391105  RH  034%=      5-min Rain = 0
KEN1 111121Z 02017KT 04/M11 A3024 RMK A01 T00391105  RH  034%=      5-min Rain = 0
KEN1 111122Z 02016G21KT 04/M11 A3024 RMK A01 T00391105  RH  034%=      5-min Rain = 0
KEN1 111123Z 02014KT 04/M11 A3024 RMK A01 T00391105  RH  034%=      5-min Rain = 0
KEN1 111124Z 02016KT 04/M11 A3024 RMK A01 T00391105  RH  034%=      5-min Rain = 0
KEN1 111125Z 02016KT 04/M11 A3024 RMK A01 T00391105  RH  034%=      5-min Rain = 0
KEN1 111126Z 02015KT 04/M11 A3024 RMK A01 T00391105  RH  034%=      5-min Rain = 0
KEN1 111127Z 02013KT 04/M11 A3024 RMK A01 T00391105  RH  034%=      5-min Rain = 0
KEN1 111128Z 02015KT 04/M11 A3024 RMK A01 T00391105  RH  034%=      5-min Rain = 0
KEN1 111129Z 02014KT 04/M11 A3024 RMK A01 T00381105  RH  034%=      5-min Rain = 0
KEN1 111130Z 02013KT 04/M11 A3024 RMK A01 T00391105  RH  034%=      5-min Rain = 0
KEN1 111131Z 02013KT 04/M11 A3024 RMK A01 T00381105  RH  034%=      5-min Rain = 0
KEN1 111132Z 01014KT 04/M11 A3024 RMK A01 T00381105  RH  034%=      5-min Rain = 0
KEN1 111133Z 02013KT 04/M11 A3024 RMK A01 T00381105  RH  034%=      5-min Rain = 0
KEN1 111134Z 02013KT 04/M11 A3024 RMK A01 T00381105  RH  034%=      5-min Rain = 0
KEN1 111135Z 01013KT 04/M11 A3024 RMK A01 T00381105  RH  034%=      5-min Rain = 0
KEN1 111136Z 02013KT 04/M11 A3024 RMK A01 T00381105  RH  034%=      5-min Rain = 0
KEN1 111137Z 02013KT 04/M11 A3024 RMK A01 T00381105  RH  034%=      5-min Rain = 0
KEN1 111138Z 03013KT 04/M11 A3024 RMK A01 T00381105  RH  034%=      5-min Rain = 0
KEN1 111139Z 02012KT 04/M11 A3024 RMK A01 T00381105  RH  034%=      5-min Rain = 0
KEN1 111140Z 02014KT 04/M11 A3024 RMK A01 T00371105  RH  035%=      5-min Rain = 0
KEN1 111141Z 02017KT 04/M11 A3024 RMK A01 T00371105  RH  035%=      5-min Rain = 0
KEN1 111142Z 02013KT 04/M10 A3024 RMK A01 T00371104  RH  035%=      5-min Rain = 0
KEN1 111143Z 02014KT 04/M11 A3024 RMK A01 T00371105  RH  035%=      5-min Rain = 0
KEN1 111144Z 02016KT 04/M10 A3024 RMK A01 T00371104  RH  035%=      5-min Rain = 0
KEN1 111145Z 03015KT 04/M10 A3024 RMK A01 T00371104  RH  035%=      5-min Rain = 0
KEN1 111146Z 02018KT 04/M10 A3024 RMK A01 T00361104  RH  035%=      5-min Rain = 0
KEN1 111147Z 03019KT 04/M10 A3024 RMK A01 T00361104  RH  035%=      5-min Rain = 0
KEN1 111148Z 03017KT 04/M10 A3024 RMK A01 T00361104  RH  035%=      5-min Rain = 0
KEN1 111149Z 03017KT 04/M10 A3024 RMK A01 T00361104  RH  035%=      5-min Rain = 0
KEN1 111150Z 03016KT 04/M10 A3024 RMK A01 T00361104  RH  035%=      5-min Rain = 0
KEN1 111151Z 03013KT 04/M10 A3024 RMK A01 T00361103  RH  035%=      5-min Rain = 0
KEN1 111152Z 02015KT 04/M10 A3024 RMK A01 T00361103  RH  035%=      5-min Rain = 0
KEN1 111153Z 02014KT 04/M10 A3024 RMK A01 T00361103  RH  036%=      5-min Rain = 0
KEN1 111154Z 02016KT 04/M10 A3024 RMK A01 T00351103  RH  036%=      5-min Rain = 0
KEN1 111155Z 02015KT 04/M10 A3024 RMK A01 T00351103  RH  036%=      5-min Rain = 0
KEN1 111156Z 02014KT 04/M10 A3024 RMK A01 T00351103  RH  036%=      5-min Rain = 0
KEN1 111157Z 02013KT 04/M10 A3024 RMK A01 T00351103  RH  036%=      5-min Rain = 0
KEN1 111158Z 02015KT 04/M10 A3024 RMK A01 T00351103  RH  036%=      5-min Rain = 0
KEN1 111159Z 02019KT 04/M10 A3024 RMK A01 T00351103  RH  036%=      5-min Rain = 0
KEN1 111200Z 02018KT 03/M10 A3024 RMK A01 T00341104  RH  036%=      5-min Rain = 0
KEN1 111201Z 02016KT 03/M10 A3024 RMK A01 T00341103  RH  036%=      5-min Rain = 0
KEN1 111202Z 02015KT 04/M10 A3024 RMK A01 T00351103  RH  036%=      5-min Rain = 0
KEN1 111203Z 02016KT 03/M10 A3024 RMK A01 T00341103  RH  036%=      5-min Rain = 0
KEN1 111204Z 02016KT 03/M10 A3024 RMK A01 T00341103  RH  036%=      5-min Rain = 0
KEN1 111205Z 02018KT 03/M10 A3024 RMK A01 T00341103  RH  036%=      5-min Rain = 0
KEN1 111206Z 03019KT 03/M10 A3024 RMK A01 T00341103  RH  036%=      5-min Rain = 0
KEN1 111207Z 02015G20KT 03/M10 A3024 RMK A01 T00341102  RH  036%=      5-min Rain = 0
KEN1 111208Z 03016G21KT 03/M10 A3024 RMK A01 T00331103  RH  036%=      5-min Rain = 0
KEN1 111209Z 02015KT 03/M10 A3024 RMK A01 T00341102  RH  036%=      5-min Rain = 0
KEN1 111210Z 02017KT 03/M10 A3024 RMK A01 T00331102  RH  036%=      5-min Rain = 0
KEN1 111211Z 02014G19KT 03/M10 A3025 RMK A01 T00341102  RH  036%=      5-min Rain = 0
KEN1 111212Z 02017G22KT 03/M10 A3025 RMK A01 T00331102  RH  036%=      5-min Rain = 0
KEN1 111213Z 02015G20KT 03/M10 A3025 RMK A01 T00331102  RH  037%=      5-min Rain = 0
KEN1 111214Z 03016G21KT 03/M10 A3025 RMK A01 T00331101  RH  037%=      5-min Rain = 0
KEN1 111215Z 02018KT 03/M10 A3025 RMK A01 T00331102  RH  037%=      5-min Rain = 0
KEN1 111216Z 03016KT 03/M10 A3025 RMK A01 T00331102  RH  037%=      5-min Rain = 0
KEN1 111217Z 03015KT 03/M10 A3025 RMK A01 T00331101  RH  037%=      5-min Rain = 0
KEN1 111218Z 03018KT 03/M10 A3025 RMK A01 T00331101  RH  037%=      5-min Rain = 0
KEN1 111219Z 03014KT 03/M10 A3025 RMK A01 T00331101  RH  037%=      5-min Rain = 0
KEN1 111220Z 03012G17KT 03/M10 A3025 RMK A01 T00321102  RH  037%=      5-min Rain = 0
KEN1 111221Z 03015KT 03/M10 A3025 RMK A01 T00321101  RH  037%=      5-min Rain = 0
KEN1 111222Z 03013KT 03/M10 A3026 RMK A01 T00321101  RH  037%=      5-min Rain = 0
KEN1 111223Z 02013KT 03/M10 A3026 RMK A01 T00321101  RH  037%=      5-min Rain = 0
KEN1 111224Z 02012KT 03/M10 A3026 RMK A01 T00321101  RH  037%=      5-min Rain = 0
KEN1 111225Z 02015KT 03/M10 A3026 RMK A01 T00321101  RH  037%=      5-min Rain = 0
KEN1 111226Z 02015KT 03/M10 A3026 RMK A01 T00321101  RH  037%=      5-min Rain = 0
KEN1 111227Z 02017KT 03/M10 A3025 RMK A01 T00321101  RH  037%=      5-min Rain = 0
KEN1 111228Z 03016KT 03/M10 A3026 RMK A01 T00321101  RH  037%=      5-min Rain = 0
KEN1 111229Z 02016KT 03/M10 A3026 RMK A01 T00321101  RH  037%=      5-min Rain = 0
KEN1 111230Z 02015KT 03/M10 A3026 RMK A01 T00311102  RH  037%=      5-min Rain = 0
KEN1 111231Z 02013KT 03/M10 A3026 RMK A01 T00311102  RH  037%=      5-min Rain = 0
KEN1 111232Z 02014KT 03/M10 A3026 RMK A01 T00311101  RH  037%=      5-min Rain = 0
KEN1 111233Z 02012KT 03/M10 A3026 RMK A01 T00311101  RH  037%=      5-min Rain = 0
KEN1 111234Z 02012KT 03/M10 A3026 RMK A01 T00311102  RH  037%=      5-min Rain = 0
KEN1 111235Z 02014KT 03/M10 A3026 RMK A01 T00311102  RH  037%=      5-min Rain = 0
KEN1 111236Z 02014KT 03/M10 A3026 RMK A01 T00301102  RH  037%=      5-min Rain = 0
KEN1 111237Z 02015KT 03/M10 A3026 RMK A01 T00301102  RH  037%=      5-min Rain = 0
KEN1 111238Z 02013KT 03/M10 A3026 RMK A01 T00301102  RH  037%=      5-min Rain = 0
KEN1 111239Z 02013KT 03/M10 A3026 RMK A01 T00301102  RH  037%=      5-min Rain = 0
KEN1 111240Z 02012KT 03/M10 A3026 RMK A01 T00301102  RH  037%=      5-min Rain = 0
KEN1 111241Z 02014KT 03/M10 A3026 RMK A01 T00301102  RH  037%=      5-min Rain = 0
KEN1 111242Z 02010KT 03/M10 A3026 RMK A01 T00301102  RH  037%=      5-min Rain = 0
KEN1 111243Z 02015KT 03/M10 A3026 RMK A01 T00301102  RH  037%=      5-min Rain = 0
KEN1 111244Z 02014KT 03/M10 A3026 RMK A01 T00291102  RH  037%=      5-min Rain = 0
KEN1 111245Z 02016G21KT 03/M10 A3026 RMK A01 T00301102  RH  037%=      5-min Rain = 0
KEN1 111246Z 02016KT 03/M10 A3026 RMK A01 T00291102  RH  037%=      5-min Rain = 0
KEN1 111247Z 01013KT 03/M10 A3026 RMK A01 T00291102  RH  037%=      5-min Rain = 0
KEN1 111248Z 02016KT 03/M10 A3026 RMK A01 T00291102  RH  038%=      5-min Rain = 0
KEN1 111249Z 02015KT 03/M10 A3027 RMK A01 T00291102  RH  038%=      5-min Rain = 0
KEN1 111250Z 01016KT 03/M10 A3027 RMK A01 T00291102  RH  038%=      5-min Rain = 0
KEN1 111251Z 02017KT 03/M10 A3026 RMK A01 T00281102  RH  038%=      5-min Rain = 0
KEN1 111252Z 02018KT 03/M10 A3026 RMK A01 T00281101  RH  038%=      5-min Rain = 0
KEN1 111253Z 02017KT 03/M10 A3026 RMK A01 T00281102  RH  038%=      5-min Rain = 0
KEN1 111254Z 02016KT 03/M10 A3026 RMK A01 T00281101  RH  038%=      5-min Rain = 0
KEN1 111255Z 02016KT 03/M10 A3026 RMK A01 T00281101  RH  038%=      5-min Rain = 0
KEN1 111256Z 02017KT 03/M10 A3027 RMK A01 T00271101  RH  038%=      5-min Rain = 0
KEN1 111257Z 02015KT 03/M10 A3027 RMK A01 T00271101  RH  038%=      5-min Rain = 0
KEN1 111258Z 02014G20KT 03/M10 A3027 RMK A01 T00271101  RH  038%=      5-min Rain = 0
KEN1 111259Z 02015KT 03/M10 A3027 RMK A01 T00271101  RH  039%=      5-min Rain = 0
KEN1 111300Z 02013KT 03/M10 A3027 RMK A01 T00271100  RH  039%=      5-min Rain = 0
KEN1 111301Z 02014G19KT 03/M10 A3027 RMK A01 T00271100  RH  039%=      5-min Rain = 0
KEN1 111302Z 02014KT 03/M10 A3027 RMK A01 T00261101  RH  039%=      5-min Rain = 0
KEN1 111303Z 02013KT 03/M10 A3027 RMK A01 T00261100  RH  039%=      5-min Rain = 0
KEN1 111304Z 02014KT 03/M10 A3027 RMK A01 T00261100  RH  039%=      5-min Rain = 0
KEN1 111305Z 02013KT 03/M10 A3027 RMK A01 T00261100  RH  039%=      5-min Rain = 0
KEN1 111306Z 02014KT 03/M10 A3027 RMK A01 T00261100  RH  039%=      5-min Rain = 0
KEN1 111307Z 02013KT 03/M10 A3027 RMK A01 T00251100  RH  039%=      5-min Rain = 0
KEN1 111308Z 02012KT 03/M10 A3027 RMK A01 T00251100  RH  039%=      5-min Rain = 0
KEN1 111309Z 02016KT 03/M10 A3027 RMK A01 T00251099  RH  039%=      5-min Rain = 0
KEN1 111310Z 02015KT 03/M10 A3027 RMK A01 T00251100  RH  039%=      5-min Rain = 0
KEN1 111311Z 02013KT 02/M10 A3027 RMK A01 T00241100  RH  039%=      5-min Rain = 0
KEN1 111312Z 02015KT 02/M10 A3027 RMK A01 T00241100  RH  040%=      5-min Rain = 0
KEN1 111313Z 02013KT 02/M10 A3027 RMK A01 T00241099  RH  040%=      5-min Rain = 0
KEN1 111314Z 02016KT 02/M10 A3027 RMK A01 T00241099  RH  040%=      5-min Rain = 0
KEN1 111315Z 02014KT 02/M10 A3027 RMK A01 T00241099  RH  040%=      5-min Rain = 0
KEN1 111316Z 02014KT 02/M10 A3027 RMK A01 T00241099  RH  040%=      5-min Rain = 0
KEN1 111317Z 02013KT 02/M10 A3027 RMK A01 T00241099  RH  040%=      5-min Rain = 0
KEN1 111318Z 02015G20KT 02/M10 A3027 RMK A01 T00231099  RH  040%=      5-min Rain = 0
KEN1 111319Z 02014KT 02/M10 A3027 RMK A01 T00231099  RH  040%=      5-min Rain = 0
KEN1 111320Z 02014KT 02/M10 A3027 RMK A01 T00231099  RH  040%=      5-min Rain = 0
KEN1 111321Z 02015KT 02/M10 A3027 RMK A01 T00231099  RH  040%=      5-min Rain = 0
KEN1 111322Z 02013G18KT 02/M10 A3027 RMK A01 T00231099  RH  040%=      5-min Rain = 0
KEN1 111323Z 02013KT 02/M10 A3027 RMK A01 T00231099  RH  040%=      5-min Rain = 0
KEN1 111324Z 02015KT 02/M10 A3027 RMK A01 T00231099  RH  040%=      5-min Rain = 0
KEN1 111325Z 02015KT 02/M10 A3027 RMK A01 T00231099  RH  040%=      5-min Rain = 0
KEN1 111326Z 02015KT 02/M10 A3028 RMK A01 T00231098  RH  040%=      5-min Rain = 0
KEN1 111327Z 02012KT 02/M10 A3028 RMK A01 T00221098  RH  041%=      5-min Rain = 0
KEN1 111328Z 02016KT 02/M10 A3028 RMK A01 T00221098  RH  041%=      5-min Rain = 0
KEN1 111329Z 02015KT 02/M10 A3028 RMK A01 T00221098  RH  041%=      5-min Rain = 0
KEN1 111330Z 02014KT 02/M10 A3028 RMK A01 T00221098  RH  041%=      5-min Rain = 0
KEN1 111331Z 02015KT 02/M10 A3028 RMK A01 T00221098  RH  041%=      5-min Rain = 0
KEN1 111332Z 02014KT 02/M10 A3028 RMK A01 T00221098  RH  041%=      5-min Rain = 0
KEN1 111333Z 02014KT 02/M10 A3028 RMK A01 T00221098  RH  041%=      5-min Rain = 0
KEN1 111334Z 02016KT 02/M10 A3027 RMK A01 T00231098  RH  041%=      5-min Rain = 0
KEN1 111335Z 02017KT 02/M10 A3028 RMK A01 T00231097  RH  041%=      5-min Rain = 0
KEN1 111336Z 02016KT 02/M10 A3028 RMK A01 T00231098  RH  041%=      5-min Rain = 0
KEN1 111337Z 02016KT 02/M10 A3028 RMK A01 T00231098  RH  041%=      5-min Rain = 0
KEN1 111338Z 02015KT 02/M10 A3028 RMK A01 T00231098  RH  041%=      5-min Rain = 0
KEN1 111339Z 02014KT 02/M10 A3028 RMK A01 T00231097  RH  041%=      5-min Rain = 0
KEN1 111340Z 02013KT 02/M10 A3028 RMK A01 T00231097  RH  041%=      5-min Rain = 0
KEN1 111341Z 02015KT 02/M10 A3028 RMK A01 T00231097  RH  041%=      5-min Rain = 0
KEN1 111342Z 02013KT 02/M10 A3028 RMK A01 T00231097  RH  041%=      5-min Rain = 0
KEN1 111343Z 02014KT 02/M10 A3028 RMK A01 T00231097  RH  041%=      5-min Rain = 0
KEN1 111344Z 02012KT 02/M10 A3028 RMK A01 T00231097  RH  041%=      5-min Rain = 0
KEN1 111345Z 02014KT 02/M10 A3028 RMK A01 T00231097  RH  041%=      5-min Rain = 0
KEN1 111346Z 02012KT 02/M10 A3028 RMK A01 T00231097  RH  041%=      5-min Rain = 0
KEN1 111347Z 02016KT 02/M10 A3028 RMK A01 T00231097  RH  041%=      5-min Rain = 0
KEN1 111348Z 02014KT 02/M10 A3029 RMK A01 T00231097  RH  041%=      5-min Rain = 0
KEN1 111349Z 01014KT 02/M10 A3029 RMK A01 T00231097  RH  041%=      5-min Rain = 0
KEN1 111350Z 02015KT 02/M10 A3029 RMK A01 T00231097  RH  041%=      5-min Rain = 0
KEN1 111351Z 02013KT 02/M10 A3029 RMK A01 T00231096  RH  041%=      5-min Rain = 0
KEN1 111352Z 01013G18KT 03/M10 A3029 RMK A01 T00251096  RH  041%=      5-min Rain = 0
KEN1 111353Z 02014KT 03/M10 A3029 RMK A01 T00261095  RH  040%=      5-min Rain = 0
KEN1 111354Z 02013KT 03/M10 A3029 RMK A01 T00261096  RH  040%=      5-min Rain = 0
KEN1 111355Z 02011KT 03/M10 A3029 RMK A01 T00261095  RH  040%=      5-min Rain = 0
KEN1 111356Z 02014KT 03/M10 A3029 RMK A01 T00251095  RH  041%=      5-min Rain = 0
KEN1 111357Z 02015KT 03/M10 A3029 RMK A01 T00251095  RH  041%=      5-min Rain = 0
KEN1 111358Z 01011KT 03/M10 A303 RMK A01 T00251095  RH  041%=      5-min Rain = 0
KEN1 111359Z 01016KT 03/M10 A303 RMK A01 T00251095  RH  041%=      5-min Rain = 0
KEN1 111400Z 01016KT 03/M10 A303 RMK A01 T00251095  RH  041%=      5-min Rain = 0
KEN1 111401Z 01013KT 03/M10 A303 RMK A01 T00251095  RH  041%=      5-min Rain = 0
KEN1 111402Z 01012KT 02/M10 A303 RMK A01 T00241095  RH  041%=      5-min Rain = 0
KEN1 111403Z 01014KT 03/M09 A303 RMK A01 T00251094  RH  041%=      5-min Rain = 0
KEN1 111404Z 02015KT 03/M10 A303 RMK A01 T00251095  RH  041%=      5-min Rain = 0
KEN1 111405Z 01015KT 03/M09 A303 RMK A01 T00251094  RH  041%=      5-min Rain = 0
KEN1 111406Z 01016KT 03/M09 A303 RMK A01 T00251094  RH  041%=      5-min Rain = 0
KEN1 111407Z 01016KT 03/M09 A303 RMK A01 T00251094  RH  041%=      5-min Rain = 0
KEN1 111408Z 01015KT 03/M09 A303 RMK A01 T00251094  RH  041%=      5-min Rain = 0
KEN1 111409Z 01012KT 03/M09 A303 RMK A01 T00251094  RH  041%=      5-min Rain = 0
KEN1 111410Z 02012KT 03/M09 A303 RMK A01 T00251094  RH  041%=      5-min Rain = 0
KEN1 111411Z 01015KT 03/M09 A3031 RMK A01 T00261093  RH  041%=      5-min Rain = 0
KEN1 111412Z 01013KT 03/M09 A3031 RMK A01 T00261094  RH  041%=      5-min Rain = 0
KEN1 111413Z 01013KT 03/M09 A3031 RMK A01 T00261094  RH  041%=      5-min Rain = 0
KEN1 111414Z 01015KT 03/M09 A3031 RMK A01 T00261094  RH  041%=      5-min Rain = 0
KEN1 111415Z 01013KT 03/M09 A3031 RMK A01 T00251094  RH  041%=      5-min Rain = 0
KEN1 111416Z 01013KT 03/M09 A3031 RMK A01 T00251094  RH  041%=      5-min Rain = 0
KEN1 111417Z 01013G18KT 03/M09 A3031 RMK A01 T00251094  RH  041%=      5-min Rain = 0
KEN1 111418Z 02015KT 03/M09 A3031 RMK A01 T00261093  RH  041%=      5-min Rain = 0
KEN1 111419Z 02014KT 03/M09 A3031 RMK A01 T00261093  RH  041%=      5-min Rain = 0
KEN1 111420Z 02014KT 03/M09 A3031 RMK A01 T00261094  RH  041%=      5-min Rain = 0
KEN1 111421Z 03013KT 03/M09 A3031 RMK A01 T00261093  RH  041%=      5-min Rain = 0
KEN1 111422Z 02013KT 03/M09 A3031 RMK A01 T00261093  RH  041%=      5-min Rain = 0
KEN1 111423Z 02011KT 03/M09 A3031 RMK A01 T00271093  RH  041%=      5-min Rain = 0
KEN1 111424Z 02013KT 03/M09 A3031 RMK A01 T00281092  RH  041%=      5-min Rain = 0
KEN1 111425Z 03011KT 03/M09 A3031 RMK A01 T00281092  RH  041%=      5-min Rain = 0
KEN1 111426Z 02013KT 03/M09 A3031 RMK A01 T00291092  RH  041%=      5-min Rain = 0
KEN1 111427Z 02014KT 03/M09 A3031 RMK A01 T00281093  RH  040%=      5-min Rain = 0
KEN1 111428Z 01014KT 03/M09 A3031 RMK A01 T00281093  RH  040%=      5-min Rain = 0
KEN1 111429Z 02015KT 03/M09 A3031 RMK A01 T00281093  RH  040%=      5-min Rain = 0
KEN1 111430Z 02018KT 03/M09 A3031 RMK A01 T00281094  RH  040%=      5-min Rain = 0
KEN1 111431Z 02015KT 03/M09 A3031 RMK A01 T00271094  RH  040%=      5-min Rain = 0
KEN1 111432Z 02016KT 03/M09 A3031 RMK A01 T00271094  RH  041%=      5-min Rain = 0
KEN1 111433Z 02017KT 03/M09 A3031 RMK A01 T00271094  RH  041%=      5-min Rain = 0
KEN1 111434Z 02017G22KT 03/M09 A3031 RMK A01 T00271094  RH  041%=      5-min Rain = 0
KEN1 111435Z 02016KT 03/M09 A3031 RMK A01 T00271094  RH  041%=      5-min Rain = 0
KEN1 111436Z 02015KT 03/M09 A3032 RMK A01 T00271094  RH  041%=      5-min Rain = 0
KEN1 111437Z 02016KT 03/M09 A3032 RMK A01 T00271094  RH  041%=      5-min Rain = 0
KEN1 111438Z 02015KT 03/M09 A3032 RMK A01 T00271094  RH  041%=      5-min Rain = 0
KEN1 111439Z 01013KT 03/M09 A3032 RMK A01 T00271094  RH  041%=      5-min Rain = 0
KEN1 111440Z 02014KT 03/M09 A3032 RMK A01 T00271093  RH  041%=      5-min Rain = 0
KEN1 111441Z 01015KT 03/M09 A3032 RMK A01 T00281093  RH  041%=      5-min Rain = 0
KEN1 111442Z 01017KT 03/M09 A3032 RMK A01 T00281093  RH  040%=      5-min Rain = 0
KEN1 111443Z 01013KT 03/M09 A3032 RMK A01 T00281094  RH  040%=      5-min Rain = 0
KEN1 111444Z 02012KT 03/M09 A3033 RMK A01 T00281093  RH  040%=      5-min Rain = 0
KEN1 111445Z 01014KT 03/M09 A3033 RMK A01 T00291093  RH  040%=      5-min Rain = 0
KEN1 111446Z 01014KT 03/M09 A3033 RMK A01 T00291094  RH  040%=      5-min Rain = 0
KEN1 111447Z 02013KT 03/M09 A3033 RMK A01 T00291094  RH  040%=      5-min Rain = 0
KEN1 111448Z 02013KT 03/M09 A3033 RMK A01 T00281094  RH  040%=      5-min Rain = 0
KEN1 111449Z 02012KT 03/M09 A3033 RMK A01 T00291094  RH  040%=      5-min Rain = 0
KEN1 111450Z 03013KT 03/M09 A3033 RMK A01 T00291093  RH  040%=      5-min Rain = 0
KEN1 111451Z 03013KT 03/M09 A3033 RMK A01 T00291093  RH  040%=      5-min Rain = 0
KEN1 111452Z 02009KT 03/M09 A3033 RMK A01 T00301093  RH  040%=      5-min Rain = 0
KEN1 111453Z 01014KT 03/M09 A3033 RMK A01 T00321091  RH  040%=      5-min Rain = 0
KEN1 111454Z 01014KT 03/M09 A3033 RMK A01 T00321093  RH  039%=      5-min Rain = 0
KEN1 111455Z 02016KT 03/M09 A3033 RMK A01 T00311094  RH  039%=      5-min Rain = 0
KEN1 111456Z 02016KT 03/M10 A3032 RMK A01 T00301095  RH  039%=      5-min Rain = 0
KEN1 111457Z 01015KT 03/M10 A3032 RMK A01 T00301095  RH  039%=      5-min Rain = 0
KEN1 111458Z 02016KT 03/M10 A3032 RMK A01 T00301095  RH  039%=      5-min Rain = 0
KEN1 111459Z 02015KT 03/M09 A3032 RMK A01 T00311094  RH  039%=      5-min Rain = 0
KEN1 111500Z 03017KT 03/M10 A3032 RMK A01 T00321095  RH  039%=      5-min Rain = 0
KEN1 111501Z 02016KT 03/M10 A3032 RMK A01 T00321095  RH  039%=      5-min Rain = 0
KEN1 111502Z 03015KT 03/M10 A3032 RMK A01 T00321096  RH  038%=      5-min Rain = 0
KEN1 111503Z 03013KT 03/M10 A3032 RMK A01 T00331096  RH  038%=      5-min Rain = 0
KEN1 111504Z 02015KT 04/M09 A3032 RMK A01 T00351094  RH  038%=      5-min Rain = 0
KEN1 111505Z 02016KT 04/M10 A3032 RMK A01 T00381095  RH  037%=      5-min Rain = 0
KEN1 111506Z 03013G18KT 04/M10 A3032 RMK A01 T00381095  RH  037%=      5-min Rain = 0
KEN1 111507Z 03013KT 04/M09 A3032 RMK A01 T00401094  RH  037%=      5-min Rain = 0
KEN1 111508Z 03014KT 04/M09 A3032 RMK A01 T00441093  RH  036%=      5-min Rain = 0
KEN1 111509Z 03014KT 04/M10 A3032 RMK A01 T00431095  RH  036%=      5-min Rain = 0
KEN1 111510Z 03013KT 04/M10 A3032 RMK A01 T00421096  RH  036%=      5-min Rain = 0
KEN1 111511Z 03014KT 04/M09 A3032 RMK A01 T00441094  RH  036%=      5-min Rain = 0
KEN1 111512Z 02014KT 04/M10 A3033 RMK A01 T00441096  RH  035%=      5-min Rain = 0
KEN1 111513Z 02014KT 04/M10 A3033 RMK A01 T00431096  RH  036%=      5-min Rain = 0
KEN1 111514Z 02015KT 04/M10 A3033 RMK A01 T00441096  RH  035%=      5-min Rain = 0
KEN1 111515Z 01019KT 04/M10 A3033 RMK A01 T00431098  RH  035%=      5-min Rain = 0
KEN1 111516Z 02015KT 04/M10 A3033 RMK A01 T00401099  RH  035%=      5-min Rain = 0
KEN1 111517Z 02015KT 04/M10 A3033 RMK A01 T00401098  RH  036%=      5-min Rain = 0
KEN1 111518Z 02015KT 04/M10 A3033 RMK A01 T00411099  RH  035%=      5-min Rain = 0
KEN1 111519Z 02013KT 04/M10 A3033 RMK A01 T00411099  RH  035%=      5-min Rain = 0
KEN1 111520Z 02013KT 04/M10 A3033 RMK A01 T00411099  RH  035%=      5-min Rain = 0
KEN1 111521Z 02013KT 04/M10 A3033 RMK A01 T00411099  RH  035%=      5-min Rain = 0
KEN1 111522Z 01015KT 04/M10 A3033 RMK A01 T00411099  RH  035%=      5-min Rain = 0
KEN1 111523Z 02014KT 04/M10 A3033 RMK A01 T00401100  RH  035%=      5-min Rain = 0
KEN1 111524Z 01012KT 04/M10 A3033 RMK A01 T00401099  RH  035%=      5-min Rain = 0
KEN1 111525Z 02015KT 04/M10 A3033 RMK A01 T00411099  RH  035%=      5-min Rain = 0
KEN1 111526Z 03014KT 04/M10 A3033 RMK A01 T00411100  RH  035%=      5-min Rain = 0
KEN1 111527Z 04013KT 04/M10 A3033 RMK A01 T00431098  RH  035%=      5-min Rain = 0
KEN1 111528Z 03014KT 04/M10 A3033 RMK A01 T00441099  RH  034%=      5-min Rain = 0
KEN1 111529Z 02016KT 05/M10 A3033 RMK A01 T00451099  RH  034%=      5-min Rain = 0
KEN1 111530Z 02015G20KT 05/M10 A3033 RMK A01 T00451101  RH  034%=      5-min Rain = 0
KEN1 111531Z 03014KT 05/M10 A3033 RMK A01 T00451101  RH  034%=      5-min Rain = 0
KEN1 111532Z 02014KT 05/M10 A3033 RMK A01 T00461101  RH  033%=      5-min Rain = 0
KEN1 111533Z 03015KT 05/M10 A3033 RMK A01 T00471101  RH  033%=      5-min Rain = 0
KEN1 111534Z 03017KT 05/M10 A3033 RMK A01 T00461102  RH  033%=      5-min Rain = 0
KEN1 111535Z 03017KT 05/M10 A3033 RMK A01 T00461103  RH  033%=      5-min Rain = 0
KEN1 111536Z 03017KT 05/M10 A3033 RMK A01 T00461102  RH  033%=      5-min Rain = 0
KEN1 111537Z 03015KT 05/M10 A3033 RMK A01 T00471103  RH  033%=      5-min Rain = 0
KEN1 111538Z 03017KT 05/M10 A3033 RMK A01 T00481101  RH  033%=      5-min Rain = 0
KEN1 111539Z 03013KT 05/M10 A3034 RMK A01 T00471103  RH  033%=      5-min Rain = 0
KEN1 111540Z 02015KT 05/M10 A3034 RMK A01 T00471102  RH  033%=      5-min Rain = 0
KEN1 111541Z 02017KT 05/M10 A3034 RMK A01 T00481103  RH  033%=      5-min Rain = 0
KEN1 111542Z 02016KT 05/M10 A3034 RMK A01 T00471104  RH  033%=      5-min Rain = 0
KEN1 111543Z 03015KT 05/M10 A3034 RMK A01 T00451104  RH  033%=      5-min Rain = 0
KEN1 111544Z 03013KT 05/M10 A3034 RMK A01 T00451103  RH  033%=      5-min Rain = 0
KEN1 111545Z 03012KT 05/M10 A3034 RMK A01 T00471102  RH  033%=      5-min Rain = 0
KEN1 111546Z 02014KT 05/M10 A3034 RMK A01 T00491102  RH  033%=      5-min Rain = 0
KEN1 111547Z 02013KT 05/M10 A3034 RMK A01 T00481103  RH  033%=      5-min Rain = 0
KEN1 111548Z 02017KT 05/M10 A3034 RMK A01 T00481103  RH  033%=      5-min Rain = 0
KEN1 111549Z 03015KT 05/M10 A3034 RMK A01 T00481104  RH  032%=      5-min Rain = 0
KEN1 111550Z 04013KT 05/M11 A3034 RMK A01 T00471105  RH  032%=      5-min Rain = 0
KEN1 111551Z 04014KT 05/M10 A3034 RMK A01 T00481104  RH  032%=      5-min Rain = 0
KEN1 111552Z 04013KT 05/M10 A3034 RMK A01 T00501103  RH  032%=      5-min Rain = 0
KEN1 111553Z 04013KT 05/M10 A3034 RMK A01 T00541101  RH  032%=      5-min Rain = 0
KEN1 111554Z 03017KT 06/M10 A3034 RMK A01 T00581101  RH  031%=      5-min Rain = 0
KEN1 111555Z 03015KT 06/M11 A3034 RMK A01 T00561105  RH  030%=      5-min Rain = 0
KEN1 111556Z 03014KT 05/M11 A3034 RMK A01 T00541105  RH  031%=      5-min Rain = 0
KEN1 111557Z 04016KT 06/M10 A3034 RMK A01 T00551104  RH  031%=      5-min Rain = 0
KEN1 111558Z 04018KT 06/M11 A3034 RMK A01 T00551105  RH  031%=      5-min Rain = 0
KEN1 111559Z 02015KT 05/M11 A3034 RMK A01 T00541105  RH  031%=      5-min Rain = 0
KEN1 111600Z 03016KT 06/M10 A3034 RMK A01 T00551104  RH  031%=      5-min Rain = 0
KEN1 111601Z 03015KT 05/M11 A3034 RMK A01 T00541105  RH  031%=      5-min Rain = 0
KEN1 111602Z 03014KT 06/M10 A3034 RMK A01 T00551104  RH  031%=      5-min Rain = 0
KEN1 111603Z 04015KT 06/M10 A3034 RMK A01 T00591103  RH  030%=      5-min Rain = 0
KEN1 111604Z 04015KT 06/M10 A3034 RMK A01 T00601104  RH  030%=      5-min Rain = 0
KEN1 111605Z 03014KT 06/M10 A3034 RMK A01 T00601104  RH  030%=      5-min Rain = 0
KEN1 111606Z 03011KT 06/M10 A3034 RMK A01 T00621103  RH  029%=      5-min Rain = 0
KEN1 111607Z 02012KT 06/M10 A3034 RMK A01 T00621104  RH  029%=      5-min Rain = 0
KEN1 111608Z 02015KT 07/M10 A3034 RMK A01 T00651103  RH  029%=      5-min Rain = 0
KEN1 111609Z 02013KT 06/M11 A3034 RMK A01 T00631106  RH  029%=      5-min Rain = 0
KEN1 111610Z 01012G17KT 06/M11 A3034 RMK A01 T00601107  RH  029%=      5-min Rain = 0
KEN1 111611Z 02016KT 06/M11 A3034 RMK A01 T00611105  RH  029%=      5-min Rain = 0
KEN1 111612Z 02016KT 06/M11 A3034 RMK A01 T00631105  RH  029%=      5-min Rain = 0
KEN1 111613Z 03016KT 06/M11 A3034 RMK A01 T00621106  RH  029%=      5-min Rain = 0
KEN1 111614Z 03015KT 06/M11 A3034 RMK A01 T00641105  RH  029%=      5-min Rain = 0
KEN1 111615Z 03013KT 07/M10 A3034 RMK A01 T00681104  RH  028%=      5-min Rain = 0
KEN1 111616Z 03012KT 07/M11 A3034 RMK A01 T00671107  RH  028%=      5-min Rain = 0
KEN1 111617Z 03012G17KT 07/M11 A3034 RMK A01 T00671105  RH  028%=      5-min Rain = 0
KEN1 111618Z 04017KT 07/M11 A3034 RMK A01 T00701105  RH  028%=      5-min Rain = 0
KEN1 111619Z 04016KT 07/M11 A3034 RMK A01 T00671109  RH  027%=      5-min Rain = 0
KEN1 111620Z 03014KT 07/M11 A3034 RMK A01 T00651109  RH  028%=      5-min Rain = 0
KEN1 111621Z 02013KT 07/M11 A3034 RMK A01 T00651108  RH  028%=      5-min Rain = 0
KEN1 111622Z 02012KT 06/M11 A3034 RMK A01 T00641109  RH  028%=      5-min Rain = 0
KEN1 111623Z 02015KT 07/M11 A3034 RMK A01 T00651107  RH  028%=      5-min Rain = 0
KEN1 111624Z 02013KT 07/M11 A3034 RMK A01 T00691105  RH  028%=      5-min Rain = 0
KEN1 111625Z 03014KT 07/M11 A3034 RMK A01 T00701107  RH  027%=      5-min Rain = 0
KEN1 111626Z 02015KT 07/M11 A3034 RMK A01 T00671109  RH  027%=      5-min Rain = 0
KEN1 111627Z 02011KT 07/M11 A3034 RMK A01 T00651110  RH  027%=      5-min Rain = 0
KEN1 111628Z 03014KT 07/M11 A3034 RMK A01 T00651108  RH  028%=      5-min Rain = 0
KEN1 111629Z 04015G20KT 07/M11 A3034 RMK A01 T00661108  RH  028%=      5-min Rain = 0
KEN1 111630Z 03016KT 07/M10 A3034 RMK A01 T00711104  RH  028%=      5-min Rain = 0
KEN1 111631Z 04013KT 07/M11 A3035 RMK A01 T00701108  RH  027%=      5-min Rain = 0
KEN1 111632Z 03016KT 07/M11 A3035 RMK A01 T00661111  RH  027%=      5-min Rain = 0
KEN1 111633Z 03014KT 06/M11 A3035 RMK A01 T00631112  RH  027%=      5-min Rain = 0
KEN1 111634Z 03011KT 06/M11 A3035 RMK A01 T00601112  RH  028%=      5-min Rain = 0
KEN1 111635Z 03009KT 06/M11 A3035 RMK A01 T00601111  RH  028%=      5-min Rain = 0
KEN1 111636Z 04013KT 06/M11 A3035 RMK A01 T00631108  RH  028%=      5-min Rain = 0
KEN1 111637Z 03011KT 07/M11 A3035 RMK A01 T00661108  RH  028%=      5-min Rain = 0
KEN1 111638Z 03014KT 07/M11 A3035 RMK A01 T00681107  RH  028%=      5-min Rain = 0
KEN1 111639Z 03012KT 07/M11 A3035 RMK A01 T00701107  RH  027%=      5-min Rain = 0
KEN1 111640Z 03010KT 07/M11 A3035 RMK A01 T00701108  RH  027%=      5-min Rain = 0
KEN1 111641Z 05014KT 07/M11 A3035 RMK A01 T00701108  RH  027%=      5-min Rain = 0
KEN1 111642Z 04010KT 07/M11 A3035 RMK A01 T00701108  RH  027%=      5-min Rain = 0
KEN1 111643Z 04010KT 07/M11 A3035 RMK A01 T00731105  RH  027%=      5-min Rain = 0
KEN1 111644Z 03015G20KT 08/M11 A3034 RMK A01 T00761105  RH  027%=      5-min Rain = 0
KEN1 111645Z 01017KT 08/M11 A3035 RMK A01 T00751106  RH  026%=      5-min Rain = 0
KEN1 111646Z 01015KT 07/M11 A3035 RMK A01 T00711108  RH  027%=      5-min Rain = 0
KEN1 111647Z 03012KT 07/M11 A3035 RMK A01 T00671108  RH  027%=      5-min Rain = 0
KEN1 111648Z 02011KT 07/M11 A3035 RMK A01 T00661107  RH  028%=      5-min Rain = 0
KEN1 111649Z 04013KT 07/M11 A3035 RMK A01 T00691106  RH  028%=      5-min Rain = 0
KEN1 111650Z 04011KT 07/M11 A3035 RMK A01 T00721105  RH  027%=      5-min Rain = 0
KEN1 111651Z 04013G18KT 07/M11 A3035 RMK A01 T00711107  RH  027%=      5-min Rain = 0
KEN1 111652Z 05014G20KT 07/M11 A3035 RMK A01 T00701108  RH  027%=      5-min Rain = 0
KEN1 111653Z 04011KT 07/M11 A3035 RMK A01 T00701108  RH  027%=      5-min Rain = 0
KEN1 111654Z 03010KT 07/M11 A3035 RMK A01 T00681108  RH  027%=      5-min Rain = 0
KEN1 111655Z 02015G20KT 07/M11 A3034 RMK A01 T00691106  RH  028%=      5-min Rain = 0
KEN1 111656Z 03015KT 07/M10 A3035 RMK A01 T00731102  RH  028%=      5-min Rain = 0
KEN1 111657Z 01014KT 07/M10 A3035 RMK A01 T00731102  RH  028%=      5-min Rain = 0
KEN1 111658Z 01014KT 07/M10 A3035 RMK A01 T00721103  RH  028%=      5-min Rain = 0
KEN1 111659Z 00012KT 07/M10 A3035 RMK A01 T00721104  RH  027%=      5-min Rain = 0
KEN1 111700Z 01013G18KT 07/M11 A3034 RMK A01 T00711105  RH  027%=      5-min Rain = 0
KEN1 111701Z 01015KT 07/M10 A3034 RMK A01 T00741102  RH  028%=      5-min Rain = 0
KEN1 111702Z 03013KT 08/M10 A3034 RMK A01 T00751102  RH  027%=      5-min Rain = 0
KEN1 111703Z 04013KT 08/M10 A3034 RMK A01 T00801099  RH  027%=      5-min Rain = 0
KEN1 111704Z 03016KT 08/M10 A3034 RMK A01 T00841100  RH  026%=      5-min Rain = 0
KEN1 111705Z 02014KT 08/M11 A3034 RMK A01 T00781105  RH  026%=      5-min Rain = 0
KEN1 111706Z 03013G18KT 08/M10 A3034 RMK A01 T00761104  RH  027%=      5-min Rain = 0
KEN1 111707Z 03013KT 08/M10 A3034 RMK A01 T00771101  RH  027%=      5-min Rain = 0
KEN1 111708Z 04012G17KT 08/M10 A3034 RMK A01 T00781101  RH  027%=      5-min Rain = 0
KEN1 111709Z 04014KT 08/M10 A3034 RMK A01 T00791101  RH  027%=      5-min Rain = 0
KEN1 111710Z 03012KT 08/M10 A3034 RMK A01 T00771103  RH  027%=      5-min Rain = 0
KEN1 111711Z 04014KT 08/M10 A3034 RMK A01 T00751103  RH  027%=      5-min Rain = 0
KEN1 111712Z 04010KT 08/M10 A3034 RMK A01 T00751102  RH  027%=      5-min Rain = 0
KEN1 111713Z 04014KT 08/M10 A3034 RMK A01 T00791099  RH  027%=      5-min Rain = 0
KEN1 111714Z 02013KT 08/M10 A3034 RMK A01 T00821100  RH  027%=      5-min Rain = 0
KEN1 111715Z 02014KT 08/M10 A3034 RMK A01 T00781103  RH  026%=      5-min Rain = 0
KEN1 111716Z 01012KT 08/M10 A3034 RMK A01 T00751104  RH  027%=      5-min Rain = 0
KEN1 111717Z 02010KT 08/M10 A3034 RMK A01 T00751102  RH  027%=      5-min Rain = 0
KEN1 111718Z 01013KT 08/M10 A3034 RMK A01 T00751101  RH  027%=      5-min Rain = 0
KEN1 111719Z 03011KT 08/M10 A3034 RMK A01 T00791099  RH  027%=      5-min Rain = 0
KEN1 111720Z 01015KT 08/M10 A3034 RMK A01 T00831099  RH  026%=      5-min Rain = 0
KEN1 111721Z 01014KT 08/M10 A3034 RMK A01 T00791103  RH  026%=      5-min Rain = 0
KEN1 111722Z 01012KT 08/M10 A3034 RMK A01 T00761102  RH  027%=      5-min Rain = 0
KEN1 111723Z 02010KT 08/M10 A3034 RMK A01 T00761102  RH  027%=      5-min Rain = 0
KEN1 111724Z 04013KT 08/M10 A3034 RMK A01 T00761101  RH  027%=      5-min Rain = 0
KEN1 111725Z 04011KT 08/M10 A3034 RMK A01 T00761102  RH  027%=      5-min Rain = 0
KEN1 111726Z 02011KT 08/M10 A3034 RMK A01 T00761101  RH  027%=      5-min Rain = 0
KEN1 111727Z 01011KT 08/M10 A3034 RMK A01 T00771100  RH  027%=      5-min Rain = 0
KEN1 111728Z 02010KT 08/M10 A3034 RMK A01 T00761101  RH  027%=      5-min Rain = 0
KEN1 111729Z 02014KT 08/M10 A3034 RMK A01 T00791098  RH  027%=      5-min Rain = 0
KEN1 111730Z 04012KT 08/M10 A3034 RMK A01 T00821099  RH  027%=      5-min Rain = 0
KEN1 111731Z 01014KT 08/M10 A3034 RMK A01 T00811101  RH  026%=      5-min Rain = 0
KEN1 111732Z 02013KT 08/M10 A3034 RMK A01 T00801101  RH  027%=      5-min Rain = 0
KEN1 111733Z 03012KT 08/M10 A3034 RMK A01 T00801100  RH  027%=      5-min Rain = 0
KEN1 111734Z 03014KT 08/M10 A3034 RMK A01 T00801101  RH  027%=      5-min Rain = 0
KEN1 111735Z 02011KT 08/M10 A3034 RMK A01 T00771102  RH  027%=      5-min Rain = 0
KEN1 111736Z 03010KT 08/M10 A3034 RMK A01 T00751102  RH  027%=      5-min Rain = 0
KEN1 111737Z 03011KT 08/M10 A3034 RMK A01 T00751101  RH  028%=      5-min Rain = 0
KEN1 111738Z 04015KT 08/M10 A3034 RMK A01 T00811097  RH  027%=      5-min Rain = 0
KEN1 111739Z 03013KT 08/M10 A3034 RMK A01 T00821099  RH  027%=      5-min Rain = 0
KEN1 111740Z 03012KT 08/M10 A3034 RMK A01 T00831099  RH  027%=      5-min Rain = 0
KEN1 111741Z 02009KT 08/M10 A3034 RMK A01 T00841098  RH  026%=      5-min Rain = 0
KEN1 111742Z 04013KT 08/M10 A3034 RMK A01 T00841100  RH  026%=      5-min Rain = 0
KEN1 111743Z 04013KT 09/M10 A3034 RMK A01 T00851100  RH  026%=      5-min Rain = 0
KEN1 111744Z 05011KT 09/M10 A3034 RMK A01 T00851101  RH  026%=      5-min Rain = 0
KEN1 111745Z 04009KT 08/M10 A3034 RMK A01 T00831103  RH  026%=      5-min Rain = 0
KEN1 111746Z 04008KT 08/M10 A3034 RMK A01 T00791103  RH  026%=      5-min Rain = 0
KEN1 111747Z 03013KT 08/M10 A3034 RMK A01 T00831098  RH  027%=      5-min Rain = 0
KEN1 111748Z 03012KT 08/M10 A3034 RMK A01 T00841101  RH  026%=      5-min Rain = 0
KEN1 111749Z 02012KT 08/M10 A3034 RMK A01 T00791104  RH  026%=      5-min Rain = 0
KEN1 111750Z 04010KT 08/M10 A3034 RMK A01 T00771103  RH  027%=      5-min Rain = 0
KEN1 111751Z 03011KT 08/M10 A3034 RMK A01 T00771102  RH  027%=      5-min Rain = 0
KEN1 111752Z 05012KT 08/M10 A3034 RMK A01 T00821100  RH  026%=      5-min Rain = 0
KEN1 111753Z 03008KT 08/M10 A3034 RMK A01 T00801103  RH  026%=      5-min Rain = 0
KEN1 111754Z 04008KT 08/M10 A3034 RMK A01 T00781103  RH  026%=      5-min Rain = 0
KEN1 111755Z 04013KT 08/M10 A3034 RMK A01 T00801101  RH  027%=      5-min Rain = 0
KEN1 111756Z 02011KT 08/M10 A3034 RMK A01 T00801102  RH  026%=      5-min Rain = 0
KEN1 111757Z 02011KT 08/M10 A3034 RMK A01 T00801101  RH  027%=      5-min Rain = 0
KEN1 111758Z 02013KT 08/M10 A3034 RMK A01 T00831100  RH  026%=      5-min Rain = 0
KEN1 111759Z 02013KT 08/M10 A3034 RMK A01 T00841101  RH  026%=      5-min Rain = 0
KEN1 111800Z 03012KT 08/M10 A3034 RMK A01 T00801103  RH  026%=      5-min Rain = 0
KEN1 111801Z 03010KT 08/M10 A3034 RMK A01 T00791103  RH  026%=      5-min Rain = 0
KEN1 111802Z 03007KT 08/M10 A3034 RMK A01 T00751103  RH  027%=      5-min Rain = 0
KEN1 111803Z 01012KT 08/M10 A3034 RMK A01 T00751102  RH  027%=      5-min Rain = 0
KEN1 111804Z 03011KT 08/M10 A3034 RMK A01 T00781100  RH  027%=      5-min Rain = 0
KEN1 111805Z 02013KT 08/M10 A3034 RMK A01 T00801101  RH  027%=      5-min Rain = 0
KEN1 111806Z 02012KT 08/M10 A3034 RMK A01 T00811101  RH  026%=      5-min Rain = 0
KEN1 111807Z 01011KT 08/M10 A3034 RMK A01 T00791103  RH  026%=      5-min Rain = 0
KEN1 111808Z 01010KT 08/M10 A3034 RMK A01 T00781102  RH  027%=      5-min Rain = 0
KEN1 111809Z 01009KT 08/M10 A3034 RMK A01 T00801101  RH  027%=      5-min Rain = 0
KEN1 111810Z 01010KT 08/M10 A3034 RMK A01 T00801101  RH  026%=      5-min Rain = 0
KEN1 111811Z 03012G17KT 08/M10 A3034 RMK A01 T00811101  RH  026%=      5-min Rain = 0
KEN1 111812Z 03015KT 08/M10 A3034 RMK A01 T00811101  RH  026%=      5-min Rain = 0
KEN1 111813Z 03014KT 08/M10 A3034 RMK A01 T00811101  RH  026%=      5-min Rain = 0
KEN1 111814Z 04009KT 08/M10 A3034 RMK A01 T00811101  RH  026%=      5-min Rain = 0
KEN1 111815Z 05009KT 08/M10 A3034 RMK A01 T00831100  RH  026%=      5-min Rain = 0
KEN1 111816Z 03010KT 09/M10 A3034 RMK A01 T00861099  RH  026%=      5-min Rain = 0
KEN1 111817Z 02012KT 09/M10 A3034 RMK A01 T00861100  RH  026%=      5-min Rain = 0
KEN1 111818Z 02011KT 09/M10 A3034 RMK A01 T00851101  RH  026%=      5-min Rain = 0
KEN1 111819Z 01010KT 08/M10 A3034 RMK A01 T00821102  RH  026%=      5-min Rain = 0
KEN1 111820Z 01013KT 08/M10 A3034 RMK A01 T00841099  RH  026%=      5-min Rain = 0
KEN1 111821Z 02013KT 09/M10 A3034 RMK A01 T00871099  RH  026%=      5-min Rain = 0
KEN1 111822Z 03015KT 09/M10 A3034 RMK A01 T00881101  RH  025%=      5-min Rain = 0
KEN1 111823Z 03011KT 09/M10 A3034 RMK A01 T00851102  RH  025%=      5-min Rain = 0
KEN1 111824Z 03015KT 08/M10 A3034 RMK A01 T00841101  RH  026%=      5-min Rain = 0
KEN1 111825Z 04012KT 09/M10 A3034 RMK A01 T00861100  RH  026%=      5-min Rain = 0
KEN1 111826Z 05011KT 09/M10 A3034 RMK A01 T00851101  RH  026%=      5-min Rain = 0
KEN1 111827Z 04009KT 08/M10 A3034 RMK A01 T00841100  RH  026%=      5-min Rain = 0
KEN1 111828Z 03013KT 09/M10 A3034 RMK A01 T00851099  RH  026%=      5-min Rain = 0
KEN1 111829Z 04011KT 08/M10 A3034 RMK A01 T00831100  RH  026%=      5-min Rain = 0
KEN1 111830Z 02010KT 09/M10 A3034 RMK A01 T00851098  RH  026%=      5-min Rain = 0
KEN1 111831Z 01012KT 09/M10 A3034 RMK A01 T00861097  RH  026%=      5-min Rain = 0
KEN1 111832Z 01015KT 09/M10 A3034 RMK A01 T00871098  RH  026%=      5-min Rain = 0
KEN1 111833Z 01012KT 08/M10 A3034 RMK A01 T00841100  RH  026%=      5-min Rain = 0
KEN1 111834Z 02014KT 08/M10 A3034 RMK A01 T00841097  RH  027%=      5-min Rain = 0
KEN1 111835Z 03013KT 09/M10 A3034 RMK A01 T00901095  RH  026%=      5-min Rain = 0
KEN1 111836Z 02014KT 09/M10 A3034 RMK A01 T00911096  RH  026%=      5-min Rain = 0
KEN1 111837Z 03012KT 09/M10 A3034 RMK A01 T00891097  RH  026%=      5-min Rain = 0
KEN1 111838Z 05011KT 09/M09 A3034 RMK A01 T00921094  RH  026%=      5-min Rain = 0
KEN1 111839Z 05011KT 09/M10 A3034 RMK A01 T00941095  RH  025%=      5-min Rain = 0
KEN1 111840Z 05009KT 09/M10 A3034 RMK A01 T00901098  RH  025%=      5-min Rain = 0
KEN1 111841Z 04009KT 09/M10 A3034 RMK A01 T00901096  RH  026%=      5-min Rain = 0
KEN1 111842Z 02010KT 09/M10 A3034 RMK A01 T00901096  RH  026%=      5-min Rain = 0
KEN1 111843Z 01014KT 09/M10 A3034 RMK A01 T00911096  RH  026%=      5-min Rain = 0
KEN1 111844Z 00014KT 09/M10 A3034 RMK A01 T00891098  RH  026%=      5-min Rain = 0
KEN1 111845Z 36013KT 09/M10 A3034 RMK A01 T00861098  RH  026%=      5-min Rain = 0
KEN1 111846Z 36012KT 09/M10 A3034 RMK A01 T00851097  RH  027%=      5-min Rain = 0
KEN1 111847Z 02011KT 09/M10 A3034 RMK A01 T00861095  RH  027%=      5-min Rain = 0
KEN1 111848Z 02011KT 09/M10 A3034 RMK A01 T00891095  RH  026%=      5-min Rain = 0
KEN1 111849Z 02012KT 09/M10 A3033 RMK A01 T00901096  RH  026%=      5-min Rain = 0
KEN1 111850Z 02009KT 09/M10 A3033 RMK A01 T00881098  RH  026%=      5-min Rain = 0
KEN1 111851Z 05011KT 09/M10 A3033 RMK A01 T00861097  RH  026%=      5-min Rain = 0
KEN1 111852Z 03009KT 09/M10 A3033 RMK A01 T00881096  RH  026%=      5-min Rain = 0
KEN1 111853Z 01005KT 09/M10 A3033 RMK A01 T00871097  RH  026%=      5-min Rain = 0
KEN1 111854Z 36009KT 09/M10 A3033 RMK A01 T00881095  RH  026%=      5-min Rain = 0
KEN1 111855Z 02011KT 09/M10 A3033 RMK A01 T00901095  RH  026%=      5-min Rain = 0
KEN1 111856Z 03013KT 09/M10 A3033 RMK A01 T00901097  RH  026%=      5-min Rain = 0
KEN1 111857Z 02011KT 09/M10 A3033 RMK A01 T00891097  RH  026%=      5-min Rain = 0
KEN1 111858Z 03008KT 09/M10 A3033 RMK A01 T00891097  RH  026%=      5-min Rain = 0
KEN1 111859Z 02010KT 09/M10 A3033 RMK A01 T00891096  RH  026%=      5-min Rain = 0
KEN1 111900Z 02010KT 09/M10 A3033 RMK A01 T00891097  RH  026%=      5-min Rain = 0
KEN1 111901Z 03009KT 09/M10 A3033 RMK A01 T00851099  RH  026%=      5-min Rain = 0
KEN1 111902Z 03009KT 08/M10 A3033 RMK A01 T00841098  RH  026%=      5-min Rain = 0
KEN1 111903Z 01008KT 08/M10 A3033 RMK A01 T00841097  RH  027%=      5-min Rain = 0
KEN1 111904Z 36006KT 08/M10 A3033 RMK A01 T00841096  RH  027%=      5-min Rain = 0
KEN1 111905Z 01005KT 08/M10 A3033 RMK A01 T00841095  RH  027%=      5-min Rain = 0
KEN1 111906Z 03006KT 09/M10 A3033 RMK A01 T00861095  RH  027%=      5-min Rain = 0
KEN1 111907Z 02009KT 09/M10 A3033 RMK A01 T00881095  RH  026%=      5-min Rain = 0
KEN1 111908Z 02009KT 09/M10 A3033 RMK A01 T00871097  RH  026%=      5-min Rain = 0
KEN1 111909Z 02009KT 09/M10 A3033 RMK A01 T00861096  RH  026%=      5-min Rain = 0
KEN1 111910Z 00007KT 09/M10 A3033 RMK A01 T00871096  RH  026%=      5-min Rain = 0
KEN1 111911Z 01006KT 09/M10 A3033 RMK A01 T00871096  RH  026%=      5-min Rain = 0
KEN1 111912Z 02007KT 09/M10 A3033 RMK A01 T00861096  RH  026%=      5-min Rain = 0
KEN1 111913Z 06005KT 09/M10 A3033 RMK A01 T00861096  RH  026%=      5-min Rain = 0
KEN1 111914Z 05006KT 09/M10 A3033 RMK A01 T00881095  RH  026%=      5-min Rain = 0
KEN1 111915Z 04006KT 09/M10 A3033 RMK A01 T00881096  RH  026%=      5-min Rain = 0
KEN1 111916Z 01010KT 09/M09 A3033 RMK A01 T00911094  RH  026%=      5-min Rain = 0
KEN1 111917Z 03008KT 09/M10 A3033 RMK A01 T00901095  RH  026%=      5-min Rain = 0
KEN1 111918Z 04008KT 09/M09 A3033 RMK A01 T00941093  RH  026%=      5-min Rain = 0
KEN1 111919Z 05009KT 10/M09 A3033 RMK A01 T00971093  RH  025%=      5-min Rain = 0
KEN1 111920Z 03009KT 10/M09 A3033 RMK A01 T00971094  RH  025%=      5-min Rain = 0
KEN1 111921Z 05006KT 10/M09 A3033 RMK A01 T01021092  RH  025%=      5-min Rain = 0
KEN1 111922Z 06007KT 10/M09 A3033 RMK A01 T01021093  RH  024%=      5-min Rain = 0
KEN1 111923Z 06005KT 10/M10 A3032 RMK A01 T01001095  RH  024%=      5-min Rain = 0
KEN1 111924Z 08004KT 10/M10 A3032 RMK A01 T00971096  RH  025%=      5-min Rain = 0
KEN1 111925Z 02007KT 10/M10 A3032 RMK A01 T00961095  RH  025%=      5-min Rain = 0
KEN1 111926Z 01005KT 10/M09 A3032 RMK A01 T00961094  RH  025%=      5-min Rain = 0
KEN1 111927Z 02006KT 10/M09 A3032 RMK A01 T00971093  RH  025%=      5-min Rain = 0
KEN1 111928Z 03003KT 10/M09 A3032 RMK A01 T00981093  RH  025%=      5-min Rain = 0
KEN1 111929Z 04008KT 10/M09 A3032 RMK A01 T01001093  RH  025%=      5-min Rain = 0
KEN1 111930Z 35005KT 10/M09 A3032 RMK A01 T01001092  RH  025%=      5-min Rain = 0
KEN1 111931Z 36005KT 10/M09 A3032 RMK A01 T01011091  RH  025%=      5-min Rain = 0
KEN1 111932Z 34005KT 10/M09 A3032 RMK A01 T01021092  RH  025%=      5-min Rain = 0
KEN1 111933Z 05005G13KT 10/M09 A3032 RMK A01 T01011092  RH  025%=      5-min Rain = 0
KEN1 111934Z 36005KT 10/M09 A3032 RMK A01 T01021092  RH  025%=      5-min Rain = 0
KEN1 111935Z 36009KT 10/M09 A3032 RMK A01 T01021091  RH  025%=      5-min Rain = 0
KEN1 111936Z 00008KT 10/M09 A3032 RMK A01 T01021091  RH  025%=      5-min Rain = 0
KEN1 111937Z 03006KT 10/M09 A3032 RMK A01 T00991093  RH  025%=      5-min Rain = 0
KEN1 111938Z 04008KT 10/M09 A3032 RMK A01 T01031090  RH  025%=      5-min Rain = 0
KEN1 111939Z 04008KT 11/M09 A3031 RMK A01 T01051091  RH  024%=      5-min Rain = 0
KEN1 111940Z 04010KT 11/M09 A3031 RMK A01 T01051091  RH  024%=      5-min Rain = 0
KEN1 111941Z 07009KT 10/M09 A3031 RMK A01 T01041092  RH  024%=      5-min Rain = 0
KEN1 111942Z 06006KT 10/M09 A3031 RMK A01 T01011093  RH  025%=      5-min Rain = 0
KEN1 111943Z 06007KT 10/M09 A3031 RMK A01 T01011092  RH  025%=      5-min Rain = 0
KEN1 111944Z 02006KT 10/M09 A3031 RMK A01 T00991094  RH  025%=      5-min Rain = 0
KEN1 111945Z 01004KT 10/M09 A3031 RMK A01 T00961094  RH  025%=      5-min Rain = 0
KEN1 111946Z 02007KT 10/M09 A3031 RMK A01 T00961092  RH  026%=      5-min Rain = 0
KEN1 111947Z 02009KT 10/M09 A3031 RMK A01 T00981090  RH  025%=      5-min Rain = 0
KEN1 111948Z 01004KT 10/M09 A3031 RMK A01 T01001092  RH  025%=      5-min Rain = 0
KEN1 111949Z 04004KT 10/M09 A3031 RMK A01 T00971093  RH  025%=      5-min Rain = 0
KEN1 111950Z 04002KT 10/M09 A3031 RMK A01 T00971092  RH  025%=      5-min Rain = 0
KEN1 111951Z 04004KT 10/M09 A3031 RMK A01 T00971091  RH  026%=      5-min Rain = 0
KEN1 111952Z 07005KT 10/M09 A3031 RMK A01 T00981091  RH  025%=      5-min Rain = 0
KEN1 111953Z 07004KT 10/M09 A3031 RMK A01 T00971092  RH  025%=      5-min Rain = 0
KEN1 111954Z 07001KT 10/M09 A3031 RMK A01 T00981091  RH  025%=      5-min Rain = 0
KEN1 111955Z 03005KT 10/M09 A3031 RMK A01 T00991091  RH  025%=      5-min Rain = 0
KEN1 111956Z 01006KT 10/M09 A3031 RMK A01 T01021089  RH  025%=      5-min Rain = 0
KEN1 111957Z 35005KT 10/M09 A3031 RMK A01 T01031091  RH  025%=      5-min Rain = 0
KEN1 111958Z 01006KT 10/M09 A3031 RMK A01 T01011091  RH  025%=      5-min Rain = 0
KEN1 111959Z 03009KT 11/M09 A3031 RMK A01 T01051087  RH  025%=      5-min Rain = 0
KEN1 112000Z 01009KT 11/M09 A3031 RMK A01 T01061090  RH  024%=      5-min Rain = 0
KEN1 112001Z 01007KT 11/M09 A3031 RMK A01 T01061089  RH  024%=      5-min Rain = 0
KEN1 112002Z 00008KT 11/M09 A3031 RMK A01 T01081088  RH  024%=      5-min Rain = 0
KEN1 112003Z 02007KT 11/M09 A303 RMK A01 T01101088  RH  024%=      5-min Rain = 0
KEN1 112004Z 35008KT 11/M09 A303 RMK A01 T01101088  RH  024%=      5-min Rain = 0
KEN1 112005Z 00007KT 11/M09 A303 RMK A01 T01121087  RH  024%=      5-min Rain = 0
KEN1 112006Z 00008KT 12/M09 A303 RMK A01 T01151085  RH  024%=      5-min Rain = 0
KEN1 112007Z 03009KT 11/M09 A303 RMK A01 T01131088  RH  023%=      5-min Rain = 0
KEN1 112008Z 05010KT 11/M09 A303 RMK A01 T01111090  RH  023%=      5-min Rain = 0
KEN1 112009Z 05010KT 11/M09 A303 RMK A01 T01081091  RH  024%=      5-min Rain = 0
KEN1 112010Z 04010KT 11/M09 A303 RMK A01 T01071090  RH  024%=      5-min Rain = 0
KEN1 112011Z 03010KT 11/M09 A303 RMK A01 T01091088  RH  024%=      5-min Rain = 0
KEN1 112012Z 02010KT 11/M09 A303 RMK A01 T01081089  RH  024%=      5-min Rain = 0
KEN1 112013Z 05010KT 11/M09 A303 RMK A01 T01081088  RH  024%=      5-min Rain = 0
KEN1 112014Z 04009KT 11/M09 A303 RMK A01 T01071089  RH  024%=      5-min Rain = 0
KEN1 112015Z 04007KT 11/M09 A303 RMK A01 T01061089  RH  024%=      5-min Rain = 0
KEN1 112016Z 04008KT 10/M09 A303 RMK A01 T01041090  RH  025%=      5-min Rain = 0
KEN1 112017Z 03004KT 10/M09 A303 RMK A01 T01041089  RH  025%=      5-min Rain = 0
KEN1 112018Z 02003KT 10/M09 A303 RMK A01 T01041089  RH  025%=      5-min Rain = 0
KEN1 112019Z 02003KT 10/M09 A3029 RMK A01 T01041089  RH  025%=      5-min Rain = 0
KEN1 112020Z 36008KT 11/M09 A3029 RMK A01 T01091085  RH  025%=      5-min Rain = 0
KEN1 112021Z 02008KT 11/M09 A303 RMK A01 T01131085  RH  024%=      5-min Rain = 0
KEN1 112022Z 03016KT 12/M09 A3029 RMK A01 T01171086  RH  023%=      5-min Rain = 0
KEN1 112023Z 03012KT 12/M09 A3029 RMK A01 T01171089  RH  023%=      5-min Rain = 0
KEN1 112024Z 03009KT 11/M09 A303 RMK A01 T01141090  RH  023%=      5-min Rain = 0
KEN1 112025Z 03010KT 11/M09 A303 RMK A01 T01141088  RH  023%=      5-min Rain = 0
KEN1 112026Z 02008KT 12/M09 A303 RMK A01 T01161088  RH  023%=      5-min Rain = 0
KEN1 112027Z 01008KT 11/M09 A303 RMK A01 T01141089  RH  023%=      5-min Rain = 0
KEN1 112028Z 35006KT 11/M09 A3029 RMK A01 T01101090  RH  024%=      5-min Rain = 0
KEN1 112029Z 00005G10KT 11/M09 A3029 RMK A01 T01071090  RH  024%=      5-min Rain = 0
KEN1 112030Z 05011KT 11/M09 A3029 RMK A01 T01071089  RH  024%=      5-min Rain = 0
KEN1 112031Z 06009KT 11/M09 A3029 RMK A01 T01081088  RH  024%=      5-min Rain = 0
KEN1 112032Z 06008KT 11/M09 A3029 RMK A01 T01081089  RH  024%=      5-min Rain = 0
KEN1 112033Z 04009KT 11/M09 A3029 RMK A01 T01071089  RH  024%=      5-min Rain = 0
KEN1 112034Z 03013KT 11/M09 A3029 RMK A01 T01081088  RH  024%=      5-min Rain = 0
KEN1 112035Z 05011G16KT 11/M09 A3029 RMK A01 T01091088  RH  024%=      5-min Rain = 0
KEN1 112036Z 05007KT 11/M09 A3029 RMK A01 T01091088  RH  024%=      5-min Rain = 0
KEN1 112037Z 06009KT 11/M09 A3029 RMK A01 T01081089  RH  024%=      5-min Rain = 0
KEN1 112038Z 06007KT 11/M09 A3029 RMK A01 T01081089  RH  024%=      5-min Rain = 0
KEN1 112039Z 06005KT 11/M09 A3029 RMK A01 T01071088  RH  025%=      5-min Rain = 0
KEN1 112040Z 05005KT 11/M09 A3029 RMK A01 T01081087  RH  024%=      5-min Rain = 0
KEN1 112041Z 03003KT 11/M09 A3029 RMK A01 T01071088  RH  024%=      5-min Rain = 0
KEN1 112042Z 07001KT 11/M09 A3029 RMK A01 T01061089  RH  025%=      5-min Rain = 0
KEN1 112043Z 00003KT 11/M09 A3029 RMK A01 T01061088  RH  025%=      5-min Rain = 0
KEN1 112044Z 03005KT 11/M09 A3029 RMK A01 T01071088  RH  025%=      5-min Rain = 0
KEN1 112045Z 04005KT 11/M09 A3029 RMK A01 T01081088  RH  024%=      5-min Rain = 0
KEN1 112046Z 06009G19KT 11/M09 A3029 RMK A01 T01081088  RH  024%=      5-min Rain = 0
KEN1 112047Z 35013G20KT 11/M09 A3028 RMK A01 T01111087  RH  024%=      5-min Rain = 0
KEN1 112048Z 03012G18KT 11/M09 A3029 RMK A01 T01141086  RH  024%=      5-min Rain = 0
KEN1 112049Z 05011KT 12/M09 A3029 RMK A01 T01151088  RH  023%=      5-min Rain = 0
KEN1 112050Z 06011KT 12/M09 A3029 RMK A01 T01171088  RH  023%=      5-min Rain = 0
KEN1 112051Z 03010KT 12/M09 A3029 RMK A01 T01211087  RH  023%=      5-min Rain = 0
KEN1 112052Z 02011KT 12/M09 A3029 RMK A01 T01231088  RH  022%=      5-min Rain = 0
KEN1 112053Z 03012KT 12/M09 A3029 RMK A01 T01241089  RH  022%=      5-min Rain = 0
KEN1 112054Z 03014G19KT 12/M09 A3029 RMK A01 T01241090  RH  022%=      5-min Rain = 0
KEN1 112055Z 02015KT 12/M09 A3029 RMK A01 T01211093  RH  021%=      5-min Rain = 0
KEN1 112056Z 03014KT 12/M09 A3029 RMK A01 T01181094  RH  022%=      5-min Rain = 0
KEN1 112057Z 04013KT 12/M10 A3029 RMK A01 T01171095  RH  022%=      5-min Rain = 0
KEN1 112058Z 02016G21KT 12/M09 A3029 RMK A01 T01181093  RH  022%=      5-min Rain = 0
KEN1 112059Z 03014KT 12/M09 A3029 RMK A01 T01201094  RH  021%=      5-min Rain = 0
KEN1 112100Z 03011KT 12/M10 A3029 RMK A01 T01191095  RH  021%=      5-min Rain = 0
KEN1 112101Z 04012KT 12/M10 A3029 RMK A01 T01191096  RH  021%=      5-min Rain = 0
KEN1 112102Z 05011KT 12/M10 A3029 RMK A01 T01191096  RH  021%=      5-min Rain = 0
KEN1 112103Z 03009KT 12/M10 A3029 RMK A01 T01191096  RH  021%=      5-min Rain = 0
KEN1 112104Z 04013KT 12/M09 A3029 RMK A01 T01221094  RH  021%=      5-min Rain = 0
KEN1 112105Z 04012KT 12/M10 A3029 RMK A01 T01221096  RH  021%=      5-min Rain = 0
KEN1 112106Z 04008KT 12/M10 A3029 RMK A01 T01211097  RH  021%=      5-min Rain = 0
KEN1 112107Z 04007KT 12/M10 A3029 RMK A01 T01191098  RH  021%=      5-min Rain = 0
KEN1 112108Z 01010KT 12/M10 A3029 RMK A01 T01171097  RH  021%=      5-min Rain = 0
KEN1 112109Z 00007KT 12/M10 A3029 RMK A01 T01171097  RH  021%=      5-min Rain = 0
KEN1 112110Z 06011KT 12/M10 A3028 RMK A01 T01191095  RH  021%=      5-min Rain = 0
KEN1 112111Z 06012KT 12/M10 A3028 RMK A01 T01241095  RH  021%=      5-min Rain = 0
KEN1 112112Z 04009KT 13/M10 A3028 RMK A01 T01261096  RH  020%=      5-min Rain = 0
KEN1 112113Z 03012KT 13/M10 A3028 RMK A01 T01281095  RH  020%=      5-min Rain = 0
KEN1 112114Z 03012KT 13/M10 A3028 RMK A01 T01291097  RH  020%=      5-min Rain = 0
KEN1 112115Z 02013KT 12/M10 A3028 RMK A01 T01231100  RH  020%=      5-min Rain = 0
KEN1 112116Z 02013KT 12/M10 A3028 RMK A01 T01231100  RH  020%=      5-min Rain = 0
KEN1 112117Z 02011KT 12/M10 A3028 RMK A01 T01231100  RH  020%=      5-min Rain = 0
KEN1 112118Z 02013KT 13/M10 A3028 RMK A01 T01251098  RH  020%=      5-min Rain = 0
KEN1 112119Z 02015KT 13/M10 A3029 RMK A01 T01261098  RH  020%=      5-min Rain = 0
KEN1 112120Z 02011KT 12/M10 A3028 RMK A01 T01241100  RH  020%=      5-min Rain = 0
KEN1 112121Z 02013G18KT 12/M10 A3028 RMK A01 T01231098  RH  020%=      5-min Rain = 0
KEN1 112122Z 03014KT 12/M10 A3028 RMK A01 T01221102  RH  020%=      5-min Rain = 0
KEN1 112123Z 03015KT 12/M10 A3028 RMK A01 T01191104  RH  020%=      5-min Rain = 0
KEN1 112124Z 03012KT 12/M10 A3028 RMK A01 T01171103  RH  020%=      5-min Rain = 0
KEN1 112125Z 03013KT 12/M10 A3028 RMK A01 T01181101  RH  021%=      5-min Rain = 0
KEN1 112126Z 03010KT 12/M10 A3028 RMK A01 T01171100  RH  021%=      5-min Rain = 0
KEN1 112127Z 04011KT 12/M10 A3028 RMK A01 T01151100  RH  021%=      5-min Rain = 0
KEN1 112128Z 03011KT 12/M10 A3028 RMK A01 T01161098  RH  021%=      5-min Rain = 0
KEN1 112129Z 03012KT 12/M10 A3028 RMK A01 T01161098  RH  021%=      5-min Rain = 0
KEN1 112130Z 04012KT 12/M10 A3028 RMK A01 T01161099  RH  021%=      5-min Rain = 0
KEN1 112131Z 03012KT 12/M10 A3028 RMK A01 T01151099  RH  021%=      5-min Rain = 0
KEN1 112132Z 01012KT 12/M10 A3028 RMK A01 T01151098  RH  022%=      5-min Rain = 0
KEN1 112133Z 02012KT 11/M10 A3028 RMK A01 T01131098  RH  022%=      5-min Rain = 0
KEN1 112134Z 04012KT 11/M10 A3028 RMK A01 T01121098  RH  022%=      5-min Rain = 0
KEN1 112135Z 03010KT 11/M10 A3028 RMK A01 T01121097  RH  022%=      5-min Rain = 0
KEN1 112136Z 02014KT 11/M10 A3028 RMK A01 T01121097  RH  022%=      5-min Rain = 0
KEN1 112137Z 02013KT 11/M10 A3028 RMK A01 T01131097  RH  022%=      5-min Rain = 0
KEN1 112138Z 02012KT 12/M10 A3028 RMK A01 T01151097  RH  022%=      5-min Rain = 0
KEN1 112139Z 02009KT 12/M10 A3028 RMK A01 T01151096  RH  022%=      5-min Rain = 0
KEN1 112140Z 01007KT 12/M10 A3028 RMK A01 T01171095  RH  022%=      5-min Rain = 0
KEN1 112141Z 01009KT 12/M09 A3028 RMK A01 T01231091  RH  021%=      5-min Rain = 0
KEN1 112142Z 36006KT 13/M09 A3028 RMK A01 T01251094  RH  021%=      5-min Rain = 0
KEN1 112143Z 04008G13KT 12/M10 A3028 RMK A01 T01211096  RH  021%=      5-min Rain = 0
KEN1 112144Z 04011KT 12/M10 A3028 RMK A01 T01211095  RH  021%=      5-min Rain = 0
KEN1 112145Z 03006KT 12/M10 A3028 RMK A01 T01181097  RH  021%=      5-min Rain = 0
KEN1 112146Z 01003KT 12/M10 A3028 RMK A01 T01171095  RH  022%=      5-min Rain = 0
KEN1 112147Z 04006KT 12/M09 A3028 RMK A01 T01181093  RH  022%=      5-min Rain = 0
KEN1 112148Z 07009KT 12/M09 A3028 RMK A01 T01221092  RH  022%=      5-min Rain = 0
KEN1 112149Z 07010KT 13/M09 A3028 RMK A01 T01261092  RH  021%=      5-min Rain = 0
KEN1 112150Z 07007KT 13/M09 A3028 RMK A01 T01251094  RH  021%=      5-min Rain = 0
KEN1 112151Z 05009KT 12/M09 A3028 RMK A01 T01241094  RH  021%=      5-min Rain = 0
KEN1 112152Z 05011KT 12/M09 A3028 RMK A01 T01231094  RH  021%=      5-min Rain = 0
KEN1 112153Z 05012KT 12/M09 A3028 RMK A01 T01241093  RH  021%=      5-min Rain = 0
KEN1 112154Z 06009KT 12/M10 A3028 RMK A01 T01231095  RH  021%=      5-min Rain = 0
KEN1 112155Z 07005KT 12/M10 A3028 RMK A01 T01201095  RH  021%=      5-min Rain = 0
KEN1 112156Z 06008KT 12/M10 A3028 RMK A01 T01161095  RH  022%=      5-min Rain = 0
KEN1 112157Z 04010KT 12/M09 A3028 RMK A01 T01161094  RH  022%=      5-min Rain = 0
KEN1 112158Z 02011KT 12/M09 A3028 RMK A01 T01191093  RH  022%=      5-min Rain = 0
KEN1 112159Z 03012KT 12/M10 A3028 RMK A01 T01191095  RH  021%=      5-min Rain = 0
KEN1 112200Z 01010KT 12/M10 A3028 RMK A01 T01181095  RH  022%=      5-min Rain = 0
KEN1 112201Z 01009KT 12/M09 A3028 RMK A01 T01191094  RH  022%=      5-min Rain = 0
KEN1 112202Z 06002KT 12/M09 A3028 RMK A01 T01201094  RH  021%=      5-min Rain = 0
KEN1 112203Z 21002KT 12/M09 A3028 RMK A01 T01191094  RH  022%=      5-min Rain = 0
KEN1 112204Z 03004KT 12/M09 A3028 RMK A01 T01191093  RH  022%=      5-min Rain = 0
KEN1 112205Z 03011KT 12/M09 A3028 RMK A01 T01191094  RH  021%=      5-min Rain = 0
KEN1 112206Z 03017KT 12/M09 A3027 RMK A01 T01221093  RH  021%=      5-min Rain = 0
KEN1 112207Z 03012KT 12/M10 A3028 RMK A01 T01211095  RH  021%=      5-min Rain = 0
KEN1 112208Z 03013G18KT 12/M09 A3028 RMK A01 T01201094  RH  021%=      5-min Rain = 0
KEN1 112209Z 03015KT 12/M09 A3028 RMK A01 T01201093  RH  022%=      5-min Rain = 0
KEN1 112210Z 02012KT 12/M09 A3028 RMK A01 T01231092  RH  021%=      5-min Rain = 0
KEN1 112211Z 04010KT 12/M09 A3028 RMK A01 T01231093  RH  021%=      5-min Rain = 0
KEN1 112212Z 03009KT 12/M09 A3028 RMK A01 T01211094  RH  021%=      5-min Rain = 0
KEN1 112213Z 04009KT 12/M09 A3028 RMK A01 T01221093  RH  021%=      5-min Rain = 0
KEN1 112214Z 02009G15KT 12/M09 A3028 RMK A01 T01221094  RH  021%=      5-min Rain = 0
KEN1 112215Z 03013KT 12/M09 A3028 RMK A01 T01221093  RH  021%=      5-min Rain = 0
KEN1 112216Z 05011KT 12/M09 A3028 RMK A01 T01241094  RH  021%=      5-min Rain = 0
KEN1 112217Z 04008KT 12/M09 A3028 RMK A01 T01241094  RH  021%=      5-min Rain = 0
KEN1 112218Z 05009KT 13/M09 A3028 RMK A01 T01251094  RH  021%=      5-min Rain = 0
KEN1 112219Z 05009G15KT 12/M10 A3028 RMK A01 T01241095  RH  021%=      5-min Rain = 0
KEN1 112220Z 03014KT 12/M09 A3028 RMK A01 T01241094  RH  021%=      5-min Rain = 0
KEN1 112221Z 02013KT 12/M10 A3028 RMK A01 T01221096  RH  021%=      5-min Rain = 0
KEN1 112222Z 02012KT 12/M10 A3028 RMK A01 T01211096  RH  021%=      5-min Rain = 0
KEN1 112223Z 04008G13KT 12/M10 A3028 RMK A01 T01201095  RH  021%=      5-min Rain = 0
KEN1 112224Z 03007KT 12/M10 A3028 RMK A01 T01211095  RH  021%=      5-min Rain = 0
KEN1 112225Z 04008KT 12/M10 A3028 RMK A01 T01201096  RH  021%=      5-min Rain = 0
KEN1 112226Z 04008KT 12/M09 A3028 RMK A01 T01241094  RH  021%=      5-min Rain = 0
KEN1 112227Z 02013KT 12/M10 A3028 RMK A01 T01231096  RH  021%=      5-min Rain = 0
KEN1 112228Z 02011KT 12/M10 A3028 RMK A01 T01221097  RH  021%=      5-min Rain = 0
KEN1 112229Z 36011KT 12/M10 A3028 RMK A01 T01221095  RH  021%=      5-min Rain = 0
KEN1 112230Z 36010KT 12/M10 A3028 RMK A01 T01221096  RH  021%=      5-min Rain = 0
KEN1 112231Z 35010KT 12/M10 A3028 RMK A01 T01201097  RH  021%=      5-min Rain = 0
KEN1 112232Z 00008KT 12/M10 A3028 RMK A01 T01181097  RH  021%=      5-min Rain = 0
KEN1 112233Z 01007KT 12/M10 A3028 RMK A01 T01181096  RH  021%=      5-min Rain = 0
KEN1 112234Z 01008KT 12/M09 A3028 RMK A01 T01201094  RH  021%=      5-min Rain = 0
KEN1 112235Z 02005KT 12/M10 A3028 RMK A01 T01231095  RH  021%=      5-min Rain = 0
KEN1 112236Z 35005KT 12/M10 A3028 RMK A01 T01231096  RH  021%=      5-min Rain = 0
KEN1 112237Z 00006KT 12/M10 A3028 RMK A01 T01241095  RH  021%=      5-min Rain = 0
KEN1 112238Z 01005KT 12/M10 A3028 RMK A01 T01241096  RH  021%=      5-min Rain = 0
KEN1 112239Z 02007KT 13/M10 A3028 RMK A01 T01251096  RH  021%=      5-min Rain = 0
KEN1 112240Z 03007G12KT 13/M10 A3028 RMK A01 T01261096  RH  020%=      5-min Rain = 0
KEN1 112241Z 03009G15KT 13/M10 A3028 RMK A01 T01261096  RH  020%=      5-min Rain = 0
KEN1 112242Z 01010G15KT 12/M10 A3028 RMK A01 T01241097  RH  020%=      5-min Rain = 0
KEN1 112243Z 00009KT 12/M10 A3028 RMK A01 T01201098  RH  021%=      5-min Rain = 0
KEN1 112244Z 00007KT 12/M10 A3028 RMK A01 T01171097  RH  021%=      5-min Rain = 0
KEN1 112245Z 01009KT 12/M10 A3028 RMK A01 T01151098  RH  022%=      5-min Rain = 0
KEN1 112246Z 01009KT 11/M10 A3028 RMK A01 T01141098  RH  022%=      5-min Rain = 0
KEN1 112247Z 05008KT 11/M10 A3028 RMK A01 T01141097  RH  022%=      5-min Rain = 0
KEN1 112248Z 06006KT 11/M10 A3028 RMK A01 T01131098  RH  022%=      5-min Rain = 0
KEN1 112249Z 05008KT 11/M10 A3028 RMK A01 T01121098  RH  022%=      5-min Rain = 0
KEN1 112250Z 04007KT 11/M10 A3028 RMK A01 T01121098  RH  022%=      5-min Rain = 0
KEN1 112251Z 05008KT 11/M10 A3028 RMK A01 T01111097  RH  022%=      5-min Rain = 0
KEN1 112252Z 05008KT 11/M10 A3028 RMK A01 T01121096  RH  022%=      5-min Rain = 0
KEN1 112253Z 04007KT 11/M10 A3028 RMK A01 T01131095  RH  022%=      5-min Rain = 0
KEN1 112254Z 03008KT 12/M10 A3029 RMK A01 T01151095  RH  022%=      5-min Rain = 0
KEN1 112255Z 02011KT 12/M10 A3029 RMK A01 T01161096  RH  022%=      5-min Rain = 0
KEN1 112256Z 03011KT 12/M10 A3029 RMK A01 T01151097  RH  022%=      5-min Rain = 0
KEN1 112257Z 02007KT 12/M10 A3029 RMK A01 T01151097  RH  022%=      5-min Rain = 0
KEN1 112258Z 03008KT 12/M10 A3029 RMK A01 T01161096  RH  022%=      5-min Rain = 0
KEN1 112259Z 03008KT 12/M10 A3029 RMK A01 T01171095  RH  022%=      5-min Rain = 0
KEN1 112300Z 02007KT 12/M10 A3029 RMK A01 T01171096  RH  021%=      5-min Rain = 0
KEN1 112301Z 01007KT 12/M10 A3029 RMK A01 T01161097  RH  021%=      5-min Rain = 0
KEN1 112302Z 35005KT 12/M10 A3029 RMK A01 T01151098  RH  022%=      5-min Rain = 0
KEN1 112303Z 35005KT 11/M10 A3029 RMK A01 T01141097  RH  022%=      5-min Rain = 0
KEN1 112304Z 02004KT 12/M10 A3029 RMK A01 T01151095  RH  022%=      5-min Rain = 0
KEN1 112305Z 04004KT 12/M10 A3029 RMK A01 T01161096  RH  022%=      5-min Rain = 0
KEN1 112306Z 02004KT 12/M10 A3029 RMK A01 T01171096  RH  021%=      5-min Rain = 0
KEN1 112307Z 04004KT 12/M10 A3029 RMK A01 T01181097  RH  021%=      5-min Rain = 0
KEN1 112308Z 04004KT 12/M10 A3029 RMK A01 T01171097  RH  021%=      5-min Rain = 0
KEN1 112309Z 36003KT 12/M10 A3029 RMK A01 T01161097  RH  021%=      5-min Rain = 0
KEN1 112310Z 03005KT 12/M10 A3029 RMK A01 T01171096  RH  022%=      5-min Rain = 0
KEN1 112311Z 04006KT 12/M10 A3029 RMK A01 T01181097  RH  021%=      5-min Rain = 0
KEN1 112312Z 04005KT 12/M10 A3029 RMK A01 T01191097  RH  021%=      5-min Rain = 0
KEN1 112313Z 03004KT 12/M10 A3029 RMK A01 T01201096  RH  021%=      5-min Rain = 0
KEN1 112314Z 01009KT 12/M10 A3029 RMK A01 T01201097  RH  021%=      5-min Rain = 0
KEN1 112315Z 01007KT 12/M10 A3029 RMK A01 T01211096  RH  021%=      5-min Rain = 0
KEN1 112316Z 01006KT 12/M10 A3029 RMK A01 T01211097  RH  021%=      5-min Rain = 0
KEN1 112317Z 01005KT 12/M10 A3029 RMK A01 T01201097  RH  021%=      5-min Rain = 0
KEN1 112318Z 02007KT 12/M10 A3029 RMK A01 T01191097  RH  021%=      5-min Rain = 0
KEN1 112319Z 02011KT 12/M10 A3029 RMK A01 T01191097  RH  021%=      5-min Rain = 0
KEN1 112320Z 02011KT 12/M10 A3029 RMK A01 T01191097  RH  021%=      5-min Rain = 0
KEN1 112321Z 02009KT 12/M10 A3029 RMK A01 T01171099  RH  021%=      5-min Rain = 0
KEN1 112322Z 02008KT 12/M10 A3029 RMK A01 T01161099  RH  021%=      5-min Rain = 0
KEN1 112323Z 02008KT 12/M10 A3029 RMK A01 T01161099  RH  021%=      5-min Rain = 0
KEN1 112324Z 00008KT 12/M10 A3029 RMK A01 T01161099  RH  021%=      5-min Rain = 0
KEN1 112325Z 36007KT 12/M10 A3029 RMK A01 T01151099  RH  021%=      5-min Rain = 0
KEN1 112326Z 01007KT 12/M10 A3029 RMK A01 T01151099  RH  021%=      5-min Rain = 0
KEN1 112327Z 02010KT 12/M10 A3029 RMK A01 T01161098  RH  021%=      5-min Rain = 0
KEN1 112328Z 04009KT 12/M10 A3029 RMK A01 T01161100  RH  021%=      5-min Rain = 0
KEN1 112329Z 03009KT 12/M10 A3029 RMK A01 T01151100  RH  021%=      5-min Rain = 0
KEN1 112330Z 03009KT 12/M10 A3029 RMK A01 T01151100  RH  021%=      5-min Rain = 0
KEN1 112331Z 03009KT 11/M10 A3029 RMK A01 T01141100  RH  021%=      5-min Rain = 0
KEN1 112332Z 03006KT 11/M10 A3029 RMK A01 T01141101  RH  021%=      5-min Rain = 0
KEN1 112333Z 03006KT 11/M10 A3029 RMK A01 T01131101  RH  021%=      5-min Rain = 0
KEN1 112334Z 03008KT 11/M10 A3029 RMK A01 T01141100  RH  021%=      5-min Rain = 0
KEN1 112335Z 03007KT 12/M10 A3029 RMK A01 T01151101  RH  021%=      5-min Rain = 0
KEN1 112336Z 03007KT 12/M10 A3029 RMK A01 T01151101  RH  021%=      5-min Rain = 0
KEN1 112337Z 03011KT 12/M10 A3029 RMK A01 T01151100  RH  021%=      5-min Rain = 0
KEN1 112338Z 04010KT 12/M10 A3029 RMK A01 T01161102  RH  021%=      5-min Rain = 0
KEN1 112339Z 02010KT 11/M10 A3029 RMK A01 T01141103  RH  021%=      5-min Rain = 0
KEN1 112340Z 03010KT 11/M10 A3029 RMK A01 T01131103  RH  021%=      5-min Rain = 0
KEN1 112341Z 04010KT 11/M10 A3029 RMK A01 T01131102  RH  021%=      5-min Rain = 0
KEN1 112342Z 04012KT 11/M10 A3029 RMK A01 T01141102  RH  021%=      5-min Rain = 0
KEN1 112343Z 04011KT 11/M10 A3029 RMK A01 T01131102  RH  021%=      5-min Rain = 0
KEN1 112344Z 04010KT 11/M10 A3029 RMK A01 T01131101  RH  021%=      5-min Rain = 0
KEN1 112345Z 03008KT 11/M10 A3029 RMK A01 T01131101  RH  021%=      5-min Rain = 0
KEN1 112346Z 03007KT 11/M10 A3029 RMK A01 T01121101  RH  021%=      5-min Rain = 0
KEN1 112347Z 03007KT 11/M10 A3029 RMK A01 T01131101  RH  021%=      5-min Rain = 0
KEN1 112348Z 03010KT 11/M10 A3029 RMK A01 T01131101  RH  021%=      5-min Rain = 0
KEN1 112349Z 03008KT 11/M10 A3029 RMK A01 T01131101  RH  021%=      5-min Rain = 0
KEN1 112350Z 03010KT 11/M10 A3029 RMK A01 T01121101  RH  021%=      5-min Rain = 0
KEN1 112351Z 03008KT 11/M10 A3029 RMK A01 T01121101  RH  021%=      5-min Rain = 0
KEN1 112352Z 03009KT 11/M10 A3029 RMK A01 T01121101  RH  021%=      5-min Rain = 0
KEN1 112353Z 03009KT 11/M10 A3029 RMK A01 T01121101  RH  021%=      5-min Rain = 0
KEN1 112354Z 02009KT 11/M10 A3029 RMK A01 T01111102  RH  021%=      5-min Rain = 0
KEN1 112355Z 02008KT 11/M10 A3029 RMK A01 T01111101  RH  021%=      5-min Rain = 0
KEN1 112356Z 02007KT 11/M10 A3029 RMK A01 T01111101  RH  022%=      5-min Rain = 0
KEN1 112357Z 03008KT 11/M10 A3029 RMK A01 T01101101  RH  022%=      5-min Rain = 0
KEN1 112358Z 02007KT 11/M10 A3029 RMK A01 T01101102  RH  022%=      5-min Rain = 0
KEN1 112359Z 03008KT 11/M10 A3029 RMK A01 T01091103  RH  022%=      5-min Rain = 0
KEN1 120000Z 02008KT 11/M10 A3029 RMK A01 T01091103  RH  022%=      5-min Rain = 0
KEN1 120001Z 02008KT 11/M10 A3029 RMK A01 T01081103  RH  022%=      5-min Rain = 0
KEN1 120002Z 02007KT 11/M10 A3029 RMK A01 T01081103  RH  022%=      5-min Rain = 0
KEN1 120003Z 02008KT 11/M10 A3029 RMK A01 T01081103  RH  022%=      5-min Rain = 0
KEN1 120004Z 03008KT 11/M10 A3029 RMK A01 T01081102  RH  022%=      5-min Rain = 0
KEN1 120005Z 03006KT 11/M10 A3029 RMK A01 T01081102  RH  022%=      5-min Rain = 0
KEN1 120006Z 05006KT 11/M10 A3029 RMK A01 T01081102  RH  022%=      5-min Rain = 0
KEN1 120007Z 04006KT 11/M10 A3029 RMK A01 T01081102  RH  022%=      5-min Rain = 0
KEN1 120008Z 06006KT 11/M10 A3029 RMK A01 T01081102  RH  022%=      5-min Rain = 0
KEN1 120009Z 06005KT 11/M10 A3029 RMK A01 T01071102  RH  022%=      5-min Rain = 0
KEN1 120010Z 06007KT 11/M10 A3029 RMK A01 T01071103  RH  022%=      5-min Rain = 0
KEN1 120011Z 06007KT 11/M10 A3029 RMK A01 T01061104  RH  022%=      5-min Rain = 0
KEN1 120012Z 06006KT 11/M10 A303 RMK A01 T01061103  RH  022%=      5-min Rain = 0
KEN1 120013Z 06005KT 11/M10 A303 RMK A01 T01061103  RH  022%=      5-min Rain = 0
KEN1 120014Z 06005KT 11/M10 A303 RMK A01 T01061103  RH  022%=      5-min Rain = 0
KEN1 120015Z 06006KT 11/M10 A303 RMK A01 T01061103  RH  022%=      5-min Rain = 0
KEN1 120016Z 06005KT 11/M10 A303 RMK A01 T01061103  RH  022%=      5-min Rain = 0
KEN1 120017Z 06006KT 11/M10 A303 RMK A01 T01051103  RH  022%=      5-min Rain = 0
KEN1 120018Z 05006KT 11/M10 A303 RMK A01 T01051103  RH  022%=      5-min Rain = 0
KEN1 120019Z 05006KT 11/M10 A303 RMK A01 T01051103  RH  022%=      5-min Rain = 0
KEN1 120020Z 05007KT 11/M10 A303 RMK A01 T01051103  RH  022%=      5-min Rain = 0
KEN1 120021Z 05007KT 10/M10 A303 RMK A01 T01041103  RH  022%=      5-min Rain = 0
KEN1 120022Z 05007KT 10/M10 A303 RMK A01 T01041103  RH  022%=      5-min Rain = 0
KEN1 120023Z 05008KT 10/M10 A303 RMK A01 T01041104  RH  022%=      5-min Rain = 0
KEN1 120024Z 05007KT 10/M10 A303 RMK A01 T01041104  RH  022%=      5-min Rain = 0
KEN1 120025Z 04006KT 11/M10 A303 RMK A01 T01051104  RH  022%=      5-min Rain = 0
KEN1 120026Z 04006KT 10/M10 A303 RMK A01 T01041104  RH  022%=      5-min Rain = 0
KEN1 120027Z 05006KT 10/M11 A303 RMK A01 T01031105  RH  022%=      5-min Rain = 0
KEN1 120028Z 05005KT 10/M11 A303 RMK A01 T01031105  RH  022%=      5-min Rain = 0
KEN1 120029Z 05005KT 10/M10 A303 RMK A01 T01021104  RH  022%=      5-min Rain = 0
KEN1 120030Z 05006KT 10/M11 A303 RMK A01 T01011105  RH  022%=      5-min Rain = 0
KEN1 120031Z 05006KT 10/M11 A303 RMK A01 T01011105  RH  022%=      5-min Rain = 0
KEN1 120032Z 06006KT 10/M11 A303 RMK A01 T01011105  RH  022%=      5-min Rain = 0
KEN1 120033Z 06005KT 10/M11 A303 RMK A01 T01001105  RH  022%=      5-min Rain = 0
KEN1 120034Z 06005KT 10/M11 A303 RMK A01 T01001105  RH  023%=      5-min Rain = 0
KEN1 120035Z 06004KT 10/M11 A3031 RMK A01 T00981105  RH  023%=      5-min Rain = 0
KEN1 120036Z 06004KT 10/M11 A3031 RMK A01 T00961106  RH  023%=      5-min Rain = 0
KEN1 120037Z 06004KT 10/M11 A3031 RMK A01 T00951106  RH  023%=      5-min Rain = 0
KEN1 120038Z 06004KT 09/M11 A3031 RMK A01 T00941106  RH  023%=      5-min Rain = 0
KEN1 120039Z 06004KT 09/M11 A3031 RMK A01 T00931106  RH  023%=      5-min Rain = 0
KEN1 120040Z 05004KT 09/M11 A3031 RMK A01 T00931106  RH  023%=      5-min Rain = 0
KEN1 120041Z 05005KT 09/M11 A3031 RMK A01 T00921107  RH  023%=      5-min Rain = 0
KEN1 120042Z 06005KT 09/M11 A3031 RMK A01 T00921107  RH  023%=      5-min Rain = 0
KEN1 120043Z 06004KT 09/M11 A3031 RMK A01 T00911106  RH  024%=      5-min Rain = 0
KEN1 120044Z 06004KT 09/M11 A3031 RMK A01 T00901107  RH  024%=      5-min Rain = 0
KEN1 120045Z 06004KT 09/M11 A3031 RMK A01 T00891107  RH  024%=      5-min Rain = 0
KEN1 120046Z 07005KT 09/M11 A3031 RMK A01 T00871108  RH  024%=      5-min Rain = 0
KEN1 120047Z 06005KT 09/M11 A3031 RMK A01 T00871107  RH  024%=      5-min Rain = 0
KEN1 120048Z 06004KT 09/M11 A3031 RMK A01 T00861108  RH  024%=      5-min Rain = 0
KEN1 120049Z 05004KT 08/M11 A3031 RMK A01 T00841108  RH  024%=      5-min Rain = 0
KEN1 120050Z 06007KT 08/M11 A3031 RMK A01 T00841108  RH  024%=      5-min Rain = 0
KEN1 120051Z 06005KT 08/M11 A3031 RMK A01 T00841109  RH  024%=      5-min Rain = 0
KEN1 120052Z 06006KT 09/M11 A3031 RMK A01 T00851109  RH  024%=      5-min Rain = 0
KEN1 120053Z 06006KT 09/M11 A3031 RMK A01 T00851109  RH  024%=      5-min Rain = 0
KEN1 120054Z 06007KT 09/M11 A3031 RMK A01 T00861109  RH  024%=      5-min Rain = 0
KEN1 120055Z 06007KT 09/M11 A3031 RMK A01 T00871108  RH  024%=      5-min Rain = 0
KEN1 120056Z 06008KT 09/M11 A3031 RMK A01 T00861109  RH  024%=      5-min Rain = 0
KEN1 120057Z 06008KT 09/M11 A3031 RMK A01 T00851110  RH  024%=      5-min Rain = 0
KEN1 120058Z 06007KT 09/M11 A3031 RMK A01 T00851110  RH  024%=      5-min Rain = 0
KEN1 120059Z 06007KT 09/M11 A3031 RMK A01 T00851111  RH  024%=      5-min Rain = 0
KEN1 120100Z 07007KT 09/M11 A3031 RMK A01 T00861111  RH  024%=      5-min Rain = 0
KEN1 120101Z 07007KT 09/M11 A3031 RMK A01 T00851112  RH  023%=      5-min Rain = 0
KEN1 120102Z 07007KT 09/M11 A3031 RMK A01 T00851112  RH  024%=      5-min Rain = 0
KEN1 120103Z 08007KT 08/M11 A3031 RMK A01 T00841113  RH  024%=      5-min Rain = 0
KEN1 120104Z 08006KT 08/M11 A3031 RMK A01 T00841112  RH  024%=      5-min Rain = 0
KEN1 120105Z 08006KT 08/M11 A3031 RMK A01 T00831112  RH  024%=      5-min Rain = 0
KEN1 120106Z 08006KT 08/M11 A3031 RMK A01 T00831112  RH  024%=      5-min Rain = 0
KEN1 120107Z 08006KT 08/M11 A3032 RMK A01 T00821113  RH  024%=      5-min Rain = 0
KEN1 120108Z 08006KT 08/M11 A3032 RMK A01 T00821113  RH  024%=      5-min Rain = 0
KEN1 120109Z 09006KT 08/M11 A3032 RMK A01 T00811112  RH  024%=      5-min Rain = 0
KEN1 120110Z 09006KT 08/M11 A3032 RMK A01 T00811112  RH  024%=      5-min Rain = 0
KEN1 120111Z 09006KT 08/M11 A3032 RMK A01 T00801112  RH  024%=      5-min Rain = 0
KEN1 120112Z 09006KT 08/M11 A3032 RMK A01 T00801112  RH  024%=      5-min Rain = 0
KEN1 120113Z 09006KT 08/M11 A3032 RMK A01 T00791112  RH  024%=      5-min Rain = 0
KEN1 120114Z 09006KT 08/M11 A3032 RMK A01 T00791112  RH  025%=      5-min Rain = 0
KEN1 120115Z 09006KT 08/M11 A3032 RMK A01 T00791112  RH  025%=      5-min Rain = 0
KEN1 120116Z 09006KT 08/M11 A3032 RMK A01 T00791112  RH  024%=      5-min Rain = 0
KEN1 120117Z 09006KT 08/M11 A3032 RMK A01 T00801112  RH  024%=      5-min Rain = 0
KEN1 120118Z 09006KT 08/M11 A3032 RMK A01 T00801112  RH  024%=      5-min Rain = 0
KEN1 120119Z 09006KT 08/M11 A3032 RMK A01 T00791112  RH  024%=      5-min Rain = 0
KEN1 120120Z 09006KT 08/M11 A3032 RMK A01 T00791112  RH  025%=      5-min Rain = 0
KEN1 120121Z 09006KT 08/M11 A3032 RMK A01 T00781112  RH  025%=      5-min Rain = 0
KEN1 120122Z 08006KT 08/M11 A3032 RMK A01 T00781112  RH  025%=      5-min Rain = 0
KEN1 120123Z 09006KT 08/M11 A3032 RMK A01 T00781112  RH  025%=      5-min Rain = 0
KEN1 120124Z 08006KT 08/M11 A3032 RMK A01 T00771112  RH  025%=      5-min Rain = 0
KEN1 120125Z 08007KT 08/M11 A3032 RMK A01 T00761113  RH  025%=      5-min Rain = 0
KEN1 120126Z 08007KT 08/M11 A3032 RMK A01 T00751113  RH  025%=      5-min Rain = 0
KEN1 120127Z 08007KT 07/M11 A3032 RMK A01 T00741113  RH  025%=      5-min Rain = 0
KEN1 120128Z 08007KT 07/M11 A3032 RMK A01 T00741113  RH  025%=      5-min Rain = 0
KEN1 120129Z 08007KT 07/M11 A3032 RMK A01 T00741113  RH  025%=      5-min Rain = 0
KEN1 120130Z 08007KT 07/M11 A3032 RMK A01 T00741113  RH  025%=      5-min Rain = 0
KEN1 120131Z 09007KT 07/M11 A3032 RMK A01 T00731113  RH  025%=      5-min Rain = 0
KEN1 120132Z 09006KT 07/M11 A3032 RMK A01 T00731113  RH  025%=      5-min Rain = 0
KEN1 120133Z 09006KT 07/M11 A3032 RMK A01 T00731113  RH  025%=      5-min Rain = 0
KEN1 120134Z 09006KT 07/M11 A3032 RMK A01 T00721113  RH  025%=      5-min Rain = 0
KEN1 120135Z 09006KT 07/M11 A3032 RMK A01 T00721114  RH  025%=      5-min Rain = 0
KEN1 120136Z 09006KT 07/M11 A3032 RMK A01 T00711114  RH  026%=      5-min Rain = 0
KEN1 120137Z 09006KT 07/M11 A3032 RMK A01 T00701114  RH  026%=      5-min Rain = 0
KEN1 120138Z 09006KT 07/M11 A3032 RMK A01 T00691114  RH  026%=      5-min Rain = 0
KEN1 120139Z 09006KT 07/M11 A3032 RMK A01 T00691114  RH  026%=      5-min Rain = 0
KEN1 120140Z 09006KT 07/M11 A3032 RMK A01 T00681114  RH  026%=      5-min Rain = 0
KEN1 120141Z 09006KT 07/M11 A3032 RMK A01 T00671114  RH  026%=      5-min Rain = 0
KEN1 120142Z 09006KT 07/M11 A3032 RMK A01 T00671114  RH  026%=      5-min Rain = 0
KEN1 120143Z 09006KT 07/M11 A3032 RMK A01 T00661114  RH  026%=      5-min Rain = 0
KEN1 120144Z 09006KT 07/M11 A3032 RMK A01 T00661114  RH  026%=      5-min Rain = 0
KEN1 120145Z 09006KT 07/M11 A3032 RMK A01 T00651114  RH  026%=      5-min Rain = 0
KEN1 120146Z 09006KT 07/M11 A3032 RMK A01 T00651113  RH  027%=      5-min Rain = 0
KEN1 120147Z 09006KT 07/M11 A3033 RMK A01 T00651114  RH  027%=      5-min Rain = 0
KEN1 120148Z 09006KT 07/M11 A3033 RMK A01 T00651114  RH  027%=      5-min Rain = 0
KEN1 120149Z 09006KT 07/M11 A3033 RMK A01 T00651114  RH  027%=      5-min Rain = 0
KEN1 120150Z 09006KT 06/M11 A3033 RMK A01 T00641114  RH  027%=      5-min Rain = 0
KEN1 120151Z 09006KT 06/M11 A3033 RMK A01 T00641114  RH  027%=      5-min Rain = 0
KEN1 120152Z 09006KT 06/M11 A3033 RMK A01 T00641114  RH  027%=      5-min Rain = 0
KEN1 120153Z 09006KT 06/M11 A3033 RMK A01 T00641114  RH  027%=      5-min Rain = 0
KEN1 120154Z 10006KT 06/M11 A3033 RMK A01 T00641114  RH  027%=      5-min Rain = 0
KEN1 120155Z 10006KT 06/M11 A3033 RMK A01 T00641114  RH  027%=      5-min Rain = 0
KEN1 120156Z 10006KT 07/M12 A3033 RMK A01 T00651115  RH  026%=      5-min Rain = 0
KEN1 120157Z 09005KT 07/M11 A3033 RMK A01 T00651114  RH  026%=      5-min Rain = 0
KEN1 120158Z 10005KT 07/M11 A3033 RMK A01 T00651114  RH  026%=      5-min Rain = 0
KEN1 120159Z 09005KT 07/M12 A3033 RMK A01 T00651115  RH  026%=      5-min Rain = 0
KEN1 120200Z 10006KT 07/M12 A3033 RMK A01 T00651115  RH  026%=      5-min Rain = 0
KEN1 120201Z 10005KT 07/M12 A3033 RMK A01 T00651115  RH  026%=      5-min Rain = 0
KEN1 120202Z 10005KT 07/M11 A3033 RMK A01 T00651114  RH  026%=      5-min Rain = 0
KEN1 120203Z 10005KT 07/M12 A3033 RMK A01 T00661115  RH  026%=      5-min Rain = 0
KEN1 120204Z 10005KT 07/M12 A3033 RMK A01 T00671115  RH  026%=      5-min Rain = 0
KEN1 120205Z 11005KT 07/M11 A3033 RMK A01 T00671114  RH  026%=      5-min Rain = 0
KEN1 120206Z 11005KT 07/M12 A3033 RMK A01 T00671115  RH  026%=      5-min Rain = 0
KEN1 120207Z 11005KT 07/M12 A3033 RMK A01 T00671115  RH  026%=      5-min Rain = 0
KEN1 120208Z 11005KT 07/M12 A3033 RMK A01 T00671115  RH  026%=      5-min Rain = 0
KEN1 120209Z 11005KT 07/M12 A3033 RMK A01 T00671115  RH  026%=      5-min Rain = 0
KEN1 120210Z 11005KT 07/M11 A3033 RMK A01 T00681114  RH  026%=      5-min Rain = 0
KEN1 120211Z 11005KT 07/M11 A3034 RMK A01 T00681114  RH  026%=      5-min Rain = 0
KEN1 120212Z 11005KT 07/M11 A3034 RMK A01 T00681114  RH  026%=      5-min Rain = 0
KEN1 120213Z 11005KT 07/M11 A3034 RMK A01 T00671114  RH  026%=      5-min Rain = 0
KEN1 120214Z 11005KT 07/M11 A3033 RMK A01 T00671114  RH  026%=      5-min Rain = 0
KEN1 120215Z 11005KT 07/M11 A3033 RMK A01 T00671114  RH  026%=      5-min Rain = 0
KEN1 120216Z 11005KT 07/M11 A3033 RMK A01 T00671114  RH  026%=      5-min Rain = 0
KEN1 120217Z 11005KT 07/M11 A3033 RMK A01 T00661114  RH  026%=      5-min Rain = 0
KEN1 120218Z 11005KT 07/M11 A3033 RMK A01 T00671114  RH  026%=      5-min Rain = 0
KEN1 120219Z 11005KT 07/M11 A3033 RMK A01 T00661114  RH  026%=      5-min Rain = 0
KEN1 120220Z 11005KT 07/M11 A3033 RMK A01 T00661114  RH  026%=      5-min Rain = 0
KEN1 120221Z 11005KT 07/M11 A3033 RMK A01 T00661114  RH  026%=      5-min Rain = 0
KEN1 120222Z 11006KT 07/M11 A3033 RMK A01 T00661114  RH  026%=      5-min Rain = 0
KEN1 120223Z 11006KT 07/M11 A3033 RMK A01 T00661114  RH  026%=      5-min Rain = 0
KEN1 120224Z 11006KT 07/M11 A3033 RMK A01 T00661113  RH  027%=      5-min Rain = 0
KEN1 120225Z 10006KT 06/M11 A3033 RMK A01 T00641114  RH  027%=      5-min Rain = 0
KEN1 120226Z 10006KT 06/M11 A3033 RMK A01 T00641114  RH  027%=      5-min Rain = 0
KEN1 120227Z 10006KT 06/M11 A3033 RMK A01 T00641114  RH  027%=      5-min Rain = 0
KEN1 120228Z 10006KT 06/M11 A3033 RMK A01 T00631114  RH  027%=      5-min Rain = 0
KEN1 120229Z 10006KT 06/M11 A3033 RMK A01 T00631114  RH  027%=      5-min Rain = 0
KEN1 120230Z 10006KT 06/M11 A3033 RMK A01 T00631114  RH  027%=      5-min Rain = 0
KEN1 120231Z 10007KT 06/M11 A3033 RMK A01 T00621114  RH  027%=      5-min Rain = 0
KEN1 120232Z 10006KT 06/M11 A3033 RMK A01 T00621114  RH  027%=      5-min Rain = 0
KEN1 120233Z 10006KT 06/M11 A3033 RMK A01 T00621114  RH  027%=      5-min Rain = 0
KEN1 120234Z 10006KT 06/M11 A3033 RMK A01 T00611114  RH  027%=      5-min Rain = 0
KEN1 120235Z 10007KT 06/M11 A3033 RMK A01 T00611113  RH  027%=      5-min Rain = 0
KEN1 120236Z 10007KT 06/M11 A3034 RMK A01 T00601113  RH  028%=      5-min Rain = 0
KEN1 120237Z 10006KT 06/M11 A3034 RMK A01 T00601114  RH  028%=      5-min Rain = 0
KEN1 120238Z 10006KT 06/M11 A3034 RMK A01 T00601113  RH  028%=      5-min Rain = 0
KEN1 120239Z 10006KT 06/M11 A3034 RMK A01 T00591114  RH  028%=      5-min Rain = 0
KEN1 120240Z 10007KT 06/M11 A3034 RMK A01 T00591114  RH  028%=      5-min Rain = 0
KEN1 120241Z 10006KT 06/M11 A3034 RMK A01 T00591114  RH  028%=      5-min Rain = 0
KEN1 120242Z 10007KT 06/M11 A3034 RMK A01 T00591113  RH  028%=      5-min Rain = 0
KEN1 120243Z 10007KT 06/M11 A3034 RMK A01 T00591114  RH  028%=      5-min Rain = 0
KEN1 120244Z 10007KT 06/M11 A3034 RMK A01 T00591114  RH  028%=      5-min Rain = 0
KEN1 120245Z 10007KT 06/M11 A3034 RMK A01 T00591114  RH  028%=      5-min Rain = 0
KEN1 120246Z 10007KT 06/M11 A3034 RMK A01 T00591114  RH  028%=      5-min Rain = 0
KEN1 120247Z 10007KT 06/M11 A3034 RMK A01 T00591114  RH  028%=      5-min Rain = 0
KEN1 120248Z 10007KT 06/M11 A3034 RMK A01 T00591114  RH  028%=      5-min Rain = 0
KEN1 120249Z 09007KT 06/M11 A3034 RMK A01 T00591114  RH  027%=      5-min Rain = 0
KEN1 120250Z 09007KT 06/M12 A3034 RMK A01 T00591115  RH  027%=      5-min Rain = 0
KEN1 120251Z 10007KT 06/M12 A3034 RMK A01 T00591115  RH  027%=      5-min Rain = 0
KEN1 120252Z 10007KT 06/M12 A3034 RMK A01 T00591115  RH  027%=      5-min Rain = 0
KEN1 120253Z 10007KT 06/M12 A3034 RMK A01 T00601115  RH  027%=      5-min Rain = 0
KEN1 120254Z 09007KT 06/M12 A3034 RMK A01 T00601115  RH  027%=      5-min Rain = 0
KEN1 120255Z 09007KT 06/M12 A3034 RMK A01 T00611115  RH  027%=      5-min Rain = 0
KEN1 120256Z 09007KT 06/M12 A3034 RMK A01 T00611115  RH  027%=      5-min Rain = 0
KEN1 120257Z 09007KT 06/M12 A3034 RMK A01 T00611116  RH  027%=      5-min Rain = 0
KEN1 120258Z 09007KT 06/M12 A3034 RMK A01 T00611116  RH  027%=      5-min Rain = 0
KEN1 120259Z 09006KT 06/M12 A3034 RMK A01 T00611116  RH  027%=      5-min Rain = 0
KEN1 120300Z 09007KT 06/M12 A3034 RMK A01 T00621116  RH  027%=      5-min Rain = 0
KEN1 120301Z 09007KT 06/M12 A3034 RMK A01 T00611115  RH  027%=      5-min Rain = 0
KEN1 120302Z 09006KT 06/M12 A3034 RMK A01 T00611115  RH  027%=      5-min Rain = 0
KEN1 120303Z 09006KT 06/M12 A3034 RMK A01 T00611115  RH  027%=      5-min Rain = 0
KEN1 120304Z 09006KT 06/M12 A3034 RMK A01 T00611115  RH  027%=      5-min Rain = 0
KEN1 120305Z 09006KT 06/M12 A3034 RMK A01 T00611115  RH  027%=      5-min Rain = 0
KEN1 120306Z 09006KT 06/M12 A3034 RMK A01 T00611115  RH  027%=      5-min Rain = 0
KEN1 120307Z 09006KT 06/M12 A3034 RMK A01 T00611115  RH  027%=      5-min Rain = 0
KEN1 120308Z 09006KT 06/M12 A3034 RMK A01 T00601115  RH  027%=      5-min Rain = 0
KEN1 120309Z 09005KT 06/M12 A3034 RMK A01 T00611115  RH  027%=      5-min Rain = 0
KEN1 120310Z 09005KT 06/M11 A3034 RMK A01 T00611114  RH  027%=      5-min Rain = 0
KEN1 120311Z 09005KT 06/M12 A3034 RMK A01 T00601115  RH  027%=      5-min Rain = 0
KEN1 120312Z 09005KT 06/M11 A3034 RMK A01 T00601114  RH  027%=      5-min Rain = 0
KEN1 120313Z 09005KT 06/M11 A3034 RMK A01 T00601114  RH  027%=      5-min Rain = 0
KEN1 120314Z 09005KT 06/M11 A3034 RMK A01 T00601114  RH  027%=      5-min Rain = 0
KEN1 120315Z 09005KT 06/M11 A3034 RMK A01 T00601114  RH  027%=      5-min Rain = 0
KEN1 120316Z 09005KT 06/M11 A3034 RMK A01 T00601114  RH  027%=      5-min Rain = 0
KEN1 120317Z 09006KT 06/M11 A3034 RMK A01 T00601114  RH  027%=      5-min Rain = 0
KEN1 120318Z 09006KT 06/M11 A3035 RMK A01 T00601114  RH  027%=      5-min Rain = 0
KEN1 120319Z 09006KT 06/M11 A3035 RMK A01 T00601114  RH  027%=      5-min Rain = 0
KEN1 120320Z 09006KT 06/M11 A3035 RMK A01 T00601114  RH  028%=      5-min Rain = 0
KEN1 120321Z 09006KT 06/M11 A3034 RMK A01 T00601114  RH  028%=      5-min Rain = 0
KEN1 120322Z 09006KT 06/M11 A3035 RMK A01 T00591113  RH  028%=      5-min Rain = 0
KEN1 120323Z 09006KT 06/M11 A3035 RMK A01 T00581113  RH  028%=      5-min Rain = 0
KEN1 120324Z 09006KT 06/M11 A3035 RMK A01 T00571113  RH  028%=      5-min Rain = 0
KEN1 120325Z 09006KT 06/M11 A3035 RMK A01 T00561113  RH  028%=      5-min Rain = 0
KEN1 120326Z 09006KT 06/M11 A3035 RMK A01 T00561113  RH  028%=      5-min Rain = 0
KEN1 120327Z 09006KT 06/M11 A3035 RMK A01 T00561112  RH  029%=      5-min Rain = 0
KEN1 120328Z 09006KT 06/M11 A3035 RMK A01 T00561112  RH  029%=      5-min Rain = 0
KEN1 120329Z 09006KT 06/M11 A3035 RMK A01 T00561112  RH  029%=      5-min Rain = 0
KEN1 120330Z 09006KT 06/M11 A3035 RMK A01 T00561112  RH  029%=      5-min Rain = 0
KEN1 120331Z 09006KT 06/M11 A3035 RMK A01 T00561112  RH  029%=      5-min Rain = 0
KEN1 120332Z 09006KT 06/M11 A3035 RMK A01 T00561112  RH  029%=      5-min Rain = 0
KEN1 120333Z 09007KT 06/M11 A3035 RMK A01 T00561112  RH  029%=      5-min Rain = 0
KEN1 120334Z 09007KT 06/M11 A3035 RMK A01 T00571112  RH  029%=      5-min Rain = 0
KEN1 120335Z 09007KT 06/M11 A3035 RMK A01 T00571111  RH  029%=      5-min Rain = 0
KEN1 120336Z 09007KT 06/M11 A3035 RMK A01 T00581112  RH  028%=      5-min Rain = 0
KEN1 120337Z 09007KT 06/M11 A3035 RMK A01 T00581112  RH  028%=      5-min Rain = 0
KEN1 120338Z 09007KT 06/M11 A3035 RMK A01 T00591111  RH  028%=      5-min Rain = 0
KEN1 120339Z 09007KT 06/M11 A3035 RMK A01 T00591112  RH  028%=      5-min Rain = 0
KEN1 120340Z 09007KT 06/M11 A3035 RMK A01 T00591112  RH  028%=      5-min Rain = 0
KEN1 120341Z 09007KT 06/M11 A3035 RMK A01 T00591112  RH  028%=      5-min Rain = 0
KEN1 120342Z 09006KT 06/M11 A3035 RMK A01 T00591112  RH  028%=      5-min Rain = 0
KEN1 120343Z 09006KT 06/M11 A3035 RMK A01 T00591112  RH  028%=      5-min Rain = 0
KEN1 120344Z 09006KT 06/M11 A3035 RMK A01 T00591112  RH  028%=      5-min Rain = 0
KEN1 120345Z 09006KT 06/M11 A3035 RMK A01 T00581112  RH  028%=      5-min Rain = 0
KEN1 120346Z 10006KT 06/M11 A3035 RMK A01 T00581113  RH  028%=      5-min Rain = 0
KEN1 120347Z 10006KT 06/M11 A3035 RMK A01 T00581113  RH  028%=      5-min Rain = 0
KEN1 120348Z 10006KT 06/M11 A3035 RMK A01 T00591113  RH  028%=      5-min Rain = 0
KEN1 120349Z 10006KT 06/M11 A3036 RMK A01 T00591113  RH  028%=      5-min Rain = 0
KEN1 120350Z 10006KT 06/M11 A3036 RMK A01 T00591113  RH  028%=      5-min Rain = 0
KEN1 120351Z 10005KT 06/M11 A3036 RMK A01 T00591113  RH  028%=      5-min Rain = 0
KEN1 120352Z 10005KT 06/M11 A3036 RMK A01 T00591113  RH  028%=      5-min Rain = 0
KEN1 120353Z 10005KT 06/M11 A3036 RMK A01 T00581113  RH  028%=      5-min Rain = 0
KEN1 120354Z 10005KT 06/M11 A3036 RMK A01 T00581113  RH  028%=      5-min Rain = 0
KEN1 120355Z 10004KT 06/M11 A3036 RMK A01 T00581113  RH  028%=      5-min Rain = 0
KEN1 120356Z 11004KT 06/M11 A3036 RMK A01 T00581114  RH  028%=      5-min Rain = 0
KEN1 120357Z 11004KT 06/M11 A3036 RMK A01 T00581114  RH  028%=      5-min Rain = 0
KEN1 120358Z 11003KT 06/M11 A3036 RMK A01 T00581114  RH  028%=      5-min Rain = 0
KEN1 120359Z 12003KT 06/M11 A3036 RMK A01 T00581114  RH  028%=      5-min Rain = 0
KEN1 120400Z 11004KT 06/M11 A3036 RMK A01 T00581114  RH  028%=      5-min Rain = 0
KEN1 120401Z 11004KT 06/M11 A3036 RMK A01 T00581114  RH  028%=      5-min Rain = 0
KEN1 120402Z 11004KT 06/M11 A3036 RMK A01 T00581114  RH  028%=      5-min Rain = 0
KEN1 120403Z 11004KT 06/M11 A3036 RMK A01 T00581114  RH  028%=      5-min Rain = 0
KEN1 120404Z 11004KT 06/M11 A3036 RMK A01 T00581114  RH  028%=      5-min Rain = 0
KEN1 120405Z 11004KT 06/M11 A3036 RMK A01 T00571114  RH  028%=      5-min Rain = 0
KEN1 120406Z 11004KT 06/M11 A3036 RMK A01 T00571114  RH  028%=      5-min Rain = 0
KEN1 120407Z 11004KT 06/M11 A3036 RMK A01 T00561114  RH  028%=      5-min Rain = 0
KEN1 120408Z 11004KT 06/M11 A3036 RMK A01 T00561114  RH  028%=      5-min Rain = 0
KEN1 120409Z 11004KT 06/M11 A3036 RMK A01 T00561114  RH  028%=      5-min Rain = 0
KEN1 120410Z 11004KT 06/M12 A3036 RMK A01 T00571115  RH  028%=      5-min Rain = 0
KEN1 120411Z 11004KT 06/M12 A3036 RMK A01 T00571115  RH  028%=      5-min Rain = 0
KEN1 120412Z 11004KT 06/M12 A3036 RMK A01 T00571115  RH  028%=      5-min Rain = 0
KEN1 120413Z 11003KT 06/M11 A3036 RMK A01 T00571114  RH  028%=      5-min Rain = 0
KEN1 120414Z 12003KT 06/M11 A3036 RMK A01 T00571114  RH  028%=      5-min Rain = 0
KEN1 120415Z 13003KT 06/M11 A3036 RMK A01 T00561114  RH  028%=      5-min Rain = 0
KEN1 120416Z 14004KT 06/M11 A3036 RMK A01 T00551114  RH  028%=      5-min Rain = 0
KEN1 120417Z 17004KT 05/M11 A3036 RMK A01 T00541113  RH  029%=      5-min Rain = 0
KEN1 120418Z 18004KT 05/M11 A3036 RMK A01 T00531113  RH  029%=      5-min Rain = 0
KEN1 120419Z 17004KT 05/M11 A3036 RMK A01 T00531112  RH  029%=      5-min Rain = 0
KEN1 120420Z 17004KT 05/M11 A3036 RMK A01 T00531113  RH  029%=      5-min Rain = 0
KEN1 120421Z 16004KT 05/M11 A3036 RMK A01 T00531113  RH  029%=      5-min Rain = 0
KEN1 120422Z 16004KT 05/M11 A3036 RMK A01 T00531113  RH  029%=      5-min Rain = 0
KEN1 120423Z 15004KT 05/M11 A3036 RMK A01 T00531114  RH  029%=      5-min Rain = 0
KEN1 120424Z 15003KT 05/M11 A3036 RMK A01 T00541114  RH  029%=      5-min Rain = 0
KEN1 120425Z 15003KT 06/M11 A3036 RMK A01 T00551113  RH  029%=      5-min Rain = 0
KEN1 120426Z 15004KT 05/M11 A3036 RMK A01 T00541114  RH  029%=      5-min Rain = 0
KEN1 120427Z 15004KT 06/M11 A3036 RMK A01 T00551114  RH  029%=      5-min Rain = 0
KEN1 120428Z 15004KT 05/M11 A3036 RMK A01 T00541114  RH  028%=      5-min Rain = 0
KEN1 120429Z 15003KT 06/M11 A3036 RMK A01 T00551114  RH  028%=      5-min Rain = 0
KEN1 120430Z 16003KT 06/M11 A3036 RMK A01 T00551114  RH  028%=      5-min Rain = 0
KEN1 120431Z 15003KT 06/M11 A3036 RMK A01 T00551114  RH  028%=      5-min Rain = 0
KEN1 120432Z 16003KT 06/M11 A3036 RMK A01 T00551114  RH  028%=      5-min Rain = 0
KEN1 120433Z 16003KT 06/M11 A3036 RMK A01 T00551114  RH  028%=      5-min Rain = 0
KEN1 120434Z 16003KT 06/M11 A3036 RMK A01 T00551114  RH  028%=      5-min Rain = 0
KEN1 120435Z 17003KT 06/M11 A3036 RMK A01 T00551114  RH  028%=      5-min Rain = 0
KEN1 120436Z 18003KT 05/M11 A3036 RMK A01 T00541114  RH  029%=      5-min Rain = 0
KEN1 120437Z 17004KT 05/M11 A3036 RMK A01 T00541114  RH  029%=      5-min Rain = 0
KEN1 120438Z 16003KT 05/M11 A3036 RMK A01 T00531113  RH  029%=      5-min Rain = 0
KEN1 120439Z 18004KT 05/M11 A3036 RMK A01 T00531113  RH  029%=      5-min Rain = 0
KEN1 120440Z 18004KT 05/M11 A3036 RMK A01 T00531113  RH  029%=      5-min Rain = 0
KEN1 120441Z 17003KT 05/M11 A3036 RMK A01 T00531113  RH  029%=      5-min Rain = 0
KEN1 120442Z 17003KT 05/M11 A3036 RMK A01 T00511113  RH  029%=      5-min Rain = 0
KEN1 120443Z 16003KT 05/M11 A3036 RMK A01 T00511113  RH  030%=      5-min Rain = 0
KEN1 120444Z 17002KT 05/M11 A3036 RMK A01 T00501112  RH  030%=      5-min Rain = 0
KEN1 120445Z 18002KT 05/M11 A3036 RMK A01 T00501112  RH  030%=      5-min Rain = 0
KEN1 120446Z 18002KT 05/M11 A3036 RMK A01 T00501113  RH  030%=      5-min Rain = 0
KEN1 120447Z 18002KT 05/M11 A3036 RMK A01 T00511112  RH  030%=      5-min Rain = 0
KEN1 120448Z 18002KT 05/M11 A3036 RMK A01 T00501112  RH  030%=      5-min Rain = 0
KEN1 120449Z 18001KT 05/M11 A3036 RMK A01 T00501113  RH  030%=      5-min Rain = 0
KEN1 120450Z 18001KT 05/M11 A3037 RMK A01 T00491113  RH  030%=      5-min Rain = 0
KEN1 120451Z 19001KT 05/M11 A3037 RMK A01 T00481113  RH  030%=      5-min Rain = 0
KEN1 120452Z 21001KT 05/M11 A3037 RMK A01 T00481112  RH  030%=      5-min Rain = 0
KEN1 120453Z 20001KT 05/M11 A3037 RMK A01 T00481112  RH  030%=      5-min Rain = 0
KEN1 120454Z 19002KT 05/M11 A3037 RMK A01 T00471113  RH  030%=      5-min Rain = 0
KEN1 120455Z 20002KT 05/M11 A3036 RMK A01 T00471113  RH  030%=      5-min Rain = 0
KEN1 120456Z 22001KT 05/M11 A3036 RMK A01 T00471113  RH  030%=      5-min Rain = 0
KEN1 120457Z 21001KT 05/M11 A3036 RMK A01 T00461113  RH  031%=      5-min Rain = 0
KEN1 120458Z 24000KT 05/M11 A3036 RMK A01 T00461112  RH  031%=      5-min Rain = 0
KEN1 120459Z 22001KT 05/M11 A3036 RMK A01 T00451113  RH  031%=      5-min Rain = 0

Page generated in 0.1583 seconds.